<?xml version="1.0" encoding="UTF-8" standalone="no" ?>
<gpx xmlns="http://www.topografix.com/GPX/1/1" xmlns:xsi="http://www.w3.org/2001/XMLSchema-instance" xsi:schemaLocation="http://www.topografix.com/GPX/1/1 http://www.topografix.com/GPX/1/1/gpx.xsd" version="1.1" creator="VisuGPX - https://www.visugpx.com">
  <metadata>
    <name>29-JUIL-21 02:35:55 PM</name>
    <desc><![CDATA[Petit promenade pour avoir un aperçu de la forêt d'Amboise et des berges de la Loire, au départ de Lussault-sur-Loire]]></desc>
  </metadata>
  <trk>
    <name><![CDATA[29-JUIL-21 02:35:55 PM]]></name>
    <trkseg>
      <trkpt lat="47.39837" lon="0.92113">
        <ele>62.14</ele>
        <time>2021-07-29T08:26:07Z</time>
      </trkpt>
      <trkpt lat="47.39834" lon="0.92114">
        <ele>61.18</ele>
        <time>2021-07-29T08:26:30Z</time>
      </trkpt>
      <trkpt lat="47.3983" lon="0.92114">
        <ele>61.66</ele>
        <time>2021-07-29T08:27:01Z</time>
      </trkpt>
      <trkpt lat="47.39834" lon="0.92117">
        <ele>61.66</ele>
        <time>2021-07-29T08:27:29Z</time>
      </trkpt>
      <trkpt lat="47.39834" lon="0.92116">
        <ele>61.66</ele>
        <time>2021-07-29T08:27:53Z</time>
      </trkpt>
      <trkpt lat="47.39834" lon="0.92113">
        <ele>63.1</ele>
        <time>2021-07-29T08:28:21Z</time>
      </trkpt>
      <trkpt lat="47.3983" lon="0.92113">
        <ele>63.1</ele>
        <time>2021-07-29T08:28:38Z</time>
      </trkpt>
      <trkpt lat="47.3983" lon="0.92117">
        <ele>63.1</ele>
        <time>2021-07-29T08:28:59Z</time>
      </trkpt>
      <trkpt lat="47.3983" lon="0.9212">
        <ele>62.62</ele>
        <time>2021-07-29T08:29:21Z</time>
      </trkpt>
      <trkpt lat="47.39827" lon="0.92107">
        <ele>63.1</ele>
        <time>2021-07-29T08:29:36Z</time>
      </trkpt>
      <trkpt lat="47.39824" lon="0.9211">
        <ele>63.1</ele>
        <time>2021-07-29T08:29:55Z</time>
      </trkpt>
      <trkpt lat="47.39823" lon="0.9211">
        <ele>63.1</ele>
        <time>2021-07-29T08:30:21Z</time>
      </trkpt>
      <trkpt lat="47.39817" lon="0.92105">
        <ele>63.58</ele>
        <time>2021-07-29T08:30:42Z</time>
      </trkpt>
      <trkpt lat="47.39805" lon="0.9211">
        <ele>64.07</ele>
        <time>2021-07-29T08:30:58Z</time>
      </trkpt>
      <trkpt lat="47.39789" lon="0.92118">
        <ele>65.99</ele>
        <time>2021-07-29T08:31:16Z</time>
      </trkpt>
      <trkpt lat="47.39781" lon="0.92127">
        <ele>69.35</ele>
        <time>2021-07-29T08:31:31Z</time>
      </trkpt>
      <trkpt lat="47.39777" lon="0.9214">
        <ele>71.76</ele>
        <time>2021-07-29T08:31:46Z</time>
      </trkpt>
      <trkpt lat="47.39778" lon="0.92154">
        <ele>75.12</ele>
        <time>2021-07-29T08:32:02Z</time>
      </trkpt>
      <trkpt lat="47.39779" lon="0.92168">
        <ele>76.08</ele>
        <time>2021-07-29T08:32:16Z</time>
      </trkpt>
      <trkpt lat="47.3978" lon="0.92187">
        <ele>78.48</ele>
        <time>2021-07-29T08:32:33Z</time>
      </trkpt>
      <trkpt lat="47.39776" lon="0.9219">
        <ele>78.97</ele>
        <time>2021-07-29T08:32:48Z</time>
      </trkpt>
      <trkpt lat="47.39778" lon="0.92192">
        <ele>79.93</ele>
        <time>2021-07-29T08:33:06Z</time>
      </trkpt>
      <trkpt lat="47.39772" lon="0.92181">
        <ele>78.97</ele>
        <time>2021-07-29T08:33:25Z</time>
      </trkpt>
      <trkpt lat="47.39764" lon="0.92163">
        <ele>81.85</ele>
        <time>2021-07-29T08:33:42Z</time>
      </trkpt>
      <trkpt lat="47.39755" lon="0.92134">
        <ele>83.77</ele>
        <time>2021-07-29T08:34:03Z</time>
      </trkpt>
      <trkpt lat="47.3974" lon="0.9212">
        <ele>83.77</ele>
        <time>2021-07-29T08:34:20Z</time>
      </trkpt>
      <trkpt lat="47.39723" lon="0.92115">
        <ele>84.25</ele>
        <time>2021-07-29T08:34:37Z</time>
      </trkpt>
      <trkpt lat="47.3972" lon="0.92116">
        <ele>84.25</ele>
        <time>2021-07-29T08:34:53Z</time>
      </trkpt>
      <trkpt lat="47.39714" lon="0.92117">
        <ele>84.73</ele>
        <time>2021-07-29T08:34:59Z</time>
      </trkpt>
      <trkpt lat="47.39709" lon="0.92117">
        <ele>85.69</ele>
        <time>2021-07-29T08:35:03Z</time>
      </trkpt>
      <trkpt lat="47.39696" lon="0.92125">
        <ele>87.14</ele>
        <time>2021-07-29T08:35:18Z</time>
      </trkpt>
      <trkpt lat="47.39681" lon="0.92132">
        <ele>87.14</ele>
        <time>2021-07-29T08:35:33Z</time>
      </trkpt>
      <trkpt lat="47.39679" lon="0.92133">
        <ele>87.62</ele>
        <time>2021-07-29T08:35:35Z</time>
      </trkpt>
      <trkpt lat="47.39662" lon="0.92143">
        <ele>88.58</ele>
        <time>2021-07-29T08:35:53Z</time>
      </trkpt>
      <trkpt lat="47.39649" lon="0.92149">
        <ele>89.06</ele>
        <time>2021-07-29T08:36:06Z</time>
      </trkpt>
      <trkpt lat="47.39644" lon="0.92154">
        <ele>89.06</ele>
        <time>2021-07-29T08:36:13Z</time>
      </trkpt>
      <trkpt lat="47.39628" lon="0.92154">
        <ele>89.54</ele>
        <time>2021-07-29T08:36:29Z</time>
      </trkpt>
      <trkpt lat="47.39618" lon="0.9216">
        <ele>90.02</ele>
        <time>2021-07-29T08:36:42Z</time>
      </trkpt>
      <trkpt lat="47.39606" lon="0.92166">
        <ele>90.98</ele>
        <time>2021-07-29T08:36:56Z</time>
      </trkpt>
      <trkpt lat="47.39596" lon="0.92171">
        <ele>90.98</ele>
        <time>2021-07-29T08:37:06Z</time>
      </trkpt>
      <trkpt lat="47.39579" lon="0.92176">
        <ele>90.98</ele>
        <time>2021-07-29T08:37:22Z</time>
      </trkpt>
      <trkpt lat="47.39564" lon="0.9218">
        <ele>91.94</ele>
        <time>2021-07-29T08:37:36Z</time>
      </trkpt>
      <trkpt lat="47.39548" lon="0.92184">
        <ele>91.94</ele>
        <time>2021-07-29T08:37:50Z</time>
      </trkpt>
      <trkpt lat="47.39529" lon="0.92188">
        <ele>92.9</ele>
        <time>2021-07-29T08:38:06Z</time>
      </trkpt>
      <trkpt lat="47.3951" lon="0.92193">
        <ele>93.87</ele>
        <time>2021-07-29T08:38:23Z</time>
      </trkpt>
      <trkpt lat="47.39494" lon="0.92196">
        <ele>93.87</ele>
        <time>2021-07-29T08:38:38Z</time>
      </trkpt>
      <trkpt lat="47.39476" lon="0.922">
        <ele>94.83</ele>
        <time>2021-07-29T08:38:53Z</time>
      </trkpt>
      <trkpt lat="47.39473" lon="0.92195">
        <ele>94.83</ele>
        <time>2021-07-29T08:39:08Z</time>
      </trkpt>
      <trkpt lat="47.39472" lon="0.92193">
        <ele>94.35</ele>
        <time>2021-07-29T08:39:27Z</time>
      </trkpt>
      <trkpt lat="47.39469" lon="0.9219">
        <ele>94.35</ele>
        <time>2021-07-29T08:39:59Z</time>
      </trkpt>
      <trkpt lat="47.39471" lon="0.92195">
        <ele>94.35</ele>
        <time>2021-07-29T08:40:25Z</time>
      </trkpt>
      <trkpt lat="47.39472" lon="0.92191">
        <ele>93.87</ele>
        <time>2021-07-29T08:40:51Z</time>
      </trkpt>
      <trkpt lat="47.39468" lon="0.92204">
        <ele>94.35</ele>
        <time>2021-07-29T08:41:05Z</time>
      </trkpt>
      <trkpt lat="47.39442" lon="0.92206">
        <ele>95.31</ele>
        <time>2021-07-29T08:41:23Z</time>
      </trkpt>
      <trkpt lat="47.39422" lon="0.92209">
        <ele>94.83</ele>
        <time>2021-07-29T08:41:42Z</time>
      </trkpt>
      <trkpt lat="47.39398" lon="0.92212">
        <ele>94.83</ele>
        <time>2021-07-29T08:42:03Z</time>
      </trkpt>
      <trkpt lat="47.39376" lon="0.92217">
        <ele>94.83</ele>
        <time>2021-07-29T08:42:22Z</time>
      </trkpt>
      <trkpt lat="47.39366" lon="0.9222">
        <ele>95.31</ele>
        <time>2021-07-29T08:42:39Z</time>
      </trkpt>
      <trkpt lat="47.39357" lon="0.92225">
        <ele>95.31</ele>
        <time>2021-07-29T08:42:52Z</time>
      </trkpt>
      <trkpt lat="47.39338" lon="0.92235">
        <ele>93.87</ele>
        <time>2021-07-29T08:43:10Z</time>
      </trkpt>
      <trkpt lat="47.3932" lon="0.92243">
        <ele>93.87</ele>
        <time>2021-07-29T08:43:28Z</time>
      </trkpt>
      <trkpt lat="47.39299" lon="0.92254">
        <ele>93.87</ele>
        <time>2021-07-29T08:43:47Z</time>
      </trkpt>
      <trkpt lat="47.39282" lon="0.92263">
        <ele>93.39</ele>
        <time>2021-07-29T08:44:04Z</time>
      </trkpt>
      <trkpt lat="47.39259" lon="0.92275">
        <ele>93.87</ele>
        <time>2021-07-29T08:44:24Z</time>
      </trkpt>
      <trkpt lat="47.39241" lon="0.92282">
        <ele>93.39</ele>
        <time>2021-07-29T08:44:42Z</time>
      </trkpt>
      <trkpt lat="47.39221" lon="0.92289">
        <ele>93.87</ele>
        <time>2021-07-29T08:45:00Z</time>
      </trkpt>
      <trkpt lat="47.39196" lon="0.92292">
        <ele>93.39</ele>
        <time>2021-07-29T08:45:21Z</time>
      </trkpt>
      <trkpt lat="47.39179" lon="0.92297">
        <ele>93.39</ele>
        <time>2021-07-29T08:45:38Z</time>
      </trkpt>
      <trkpt lat="47.39168" lon="0.92296">
        <ele>93.39</ele>
        <time>2021-07-29T08:45:53Z</time>
      </trkpt>
      <trkpt lat="47.39147" lon="0.92295">
        <ele>92.9</ele>
        <time>2021-07-29T08:46:11Z</time>
      </trkpt>
      <trkpt lat="47.39133" lon="0.92272">
        <ele>92.42</ele>
        <time>2021-07-29T08:46:31Z</time>
      </trkpt>
      <trkpt lat="47.39125" lon="0.92253">
        <ele>91.94</ele>
        <time>2021-07-29T08:46:43Z</time>
      </trkpt>
      <trkpt lat="47.39111" lon="0.92225">
        <ele>91.94</ele>
        <time>2021-07-29T08:47:04Z</time>
      </trkpt>
      <trkpt lat="47.391" lon="0.92206">
        <ele>90.98</ele>
        <time>2021-07-29T08:47:20Z</time>
      </trkpt>
      <trkpt lat="47.39086" lon="0.92181">
        <ele>90.5</ele>
        <time>2021-07-29T08:47:38Z</time>
      </trkpt>
      <trkpt lat="47.39076" lon="0.92156">
        <ele>89.54</ele>
        <time>2021-07-29T08:47:54Z</time>
      </trkpt>
      <trkpt lat="47.39068" lon="0.92138">
        <ele>88.58</ele>
        <time>2021-07-29T08:48:08Z</time>
      </trkpt>
      <trkpt lat="47.39058" lon="0.9212">
        <ele>89.06</ele>
        <time>2021-07-29T08:48:24Z</time>
      </trkpt>
      <trkpt lat="47.39049" lon="0.92094">
        <ele>88.58</ele>
        <time>2021-07-29T08:48:42Z</time>
      </trkpt>
      <trkpt lat="47.3904" lon="0.92073">
        <ele>88.58</ele>
        <time>2021-07-29T08:48:56Z</time>
      </trkpt>
      <trkpt lat="47.3903" lon="0.92043">
        <ele>89.54</ele>
        <time>2021-07-29T08:49:16Z</time>
      </trkpt>
      <trkpt lat="47.39023" lon="0.92021">
        <ele>90.5</ele>
        <time>2021-07-29T08:49:33Z</time>
      </trkpt>
      <trkpt lat="47.39021" lon="0.92024">
        <ele>90.02</ele>
        <time>2021-07-29T08:49:53Z</time>
      </trkpt>
      <trkpt lat="47.39006" lon="0.92026">
        <ele>91.46</ele>
        <time>2021-07-29T08:50:07Z</time>
      </trkpt>
      <trkpt lat="47.38992" lon="0.92024">
        <ele>91.94</ele>
        <time>2021-07-29T08:50:22Z</time>
      </trkpt>
      <trkpt lat="47.38981" lon="0.92024">
        <ele>91.46</ele>
        <time>2021-07-29T08:50:40Z</time>
      </trkpt>
      <trkpt lat="47.38961" lon="0.9202">
        <ele>91.94</ele>
        <time>2021-07-29T08:50:59Z</time>
      </trkpt>
      <trkpt lat="47.38942" lon="0.92015">
        <ele>91.94</ele>
        <time>2021-07-29T08:51:18Z</time>
      </trkpt>
      <trkpt lat="47.3892" lon="0.9201">
        <ele>91.94</ele>
        <time>2021-07-29T08:51:33Z</time>
      </trkpt>
      <trkpt lat="47.38902" lon="0.92012">
        <ele>91.94</ele>
        <time>2021-07-29T08:51:50Z</time>
      </trkpt>
      <trkpt lat="47.38887" lon="0.92019">
        <ele>92.42</ele>
        <time>2021-07-29T08:52:05Z</time>
      </trkpt>
      <trkpt lat="47.3887" lon="0.92022">
        <ele>92.9</ele>
        <time>2021-07-29T08:52:22Z</time>
      </trkpt>
      <trkpt lat="47.38858" lon="0.92027">
        <ele>92.9</ele>
        <time>2021-07-29T08:52:34Z</time>
      </trkpt>
      <trkpt lat="47.3884" lon="0.92035">
        <ele>93.39</ele>
        <time>2021-07-29T08:52:51Z</time>
      </trkpt>
      <trkpt lat="47.38825" lon="0.92042">
        <ele>92.42</ele>
        <time>2021-07-29T08:53:06Z</time>
      </trkpt>
      <trkpt lat="47.38807" lon="0.92052">
        <ele>92.9</ele>
        <time>2021-07-29T08:53:24Z</time>
      </trkpt>
      <trkpt lat="47.38801" lon="0.92057">
        <ele>93.39</ele>
        <time>2021-07-29T08:53:37Z</time>
      </trkpt>
      <trkpt lat="47.38802" lon="0.92058">
        <ele>93.87</ele>
        <time>2021-07-29T08:54:05Z</time>
      </trkpt>
      <trkpt lat="47.38792" lon="0.92061">
        <ele>93.39</ele>
        <time>2021-07-29T08:54:28Z</time>
      </trkpt>
      <trkpt lat="47.38778" lon="0.9207">
        <ele>93.87</ele>
        <time>2021-07-29T08:54:44Z</time>
      </trkpt>
      <trkpt lat="47.38759" lon="0.92081">
        <ele>93.87</ele>
        <time>2021-07-29T08:55:02Z</time>
      </trkpt>
      <trkpt lat="47.38741" lon="0.92091">
        <ele>93.87</ele>
        <time>2021-07-29T08:55:20Z</time>
      </trkpt>
      <trkpt lat="47.38723" lon="0.92099">
        <ele>94.83</ele>
        <time>2021-07-29T08:55:38Z</time>
      </trkpt>
      <trkpt lat="47.38708" lon="0.92108">
        <ele>94.83</ele>
        <time>2021-07-29T08:55:53Z</time>
      </trkpt>
      <trkpt lat="47.38699" lon="0.9212">
        <ele>94.83</ele>
        <time>2021-07-29T08:56:08Z</time>
      </trkpt>
      <trkpt lat="47.38699" lon="0.92116">
        <ele>94.83</ele>
        <time>2021-07-29T08:56:38Z</time>
      </trkpt>
      <trkpt lat="47.38687" lon="0.9213">
        <ele>94.83</ele>
        <time>2021-07-29T08:56:53Z</time>
      </trkpt>
      <trkpt lat="47.38678" lon="0.92159">
        <ele>94.83</ele>
        <time>2021-07-29T08:57:10Z</time>
      </trkpt>
      <trkpt lat="47.38674" lon="0.92187">
        <ele>95.79</ele>
        <time>2021-07-29T08:57:26Z</time>
      </trkpt>
      <trkpt lat="47.38665" lon="0.92209">
        <ele>95.31</ele>
        <time>2021-07-29T08:57:42Z</time>
      </trkpt>
      <trkpt lat="47.38663" lon="0.92211">
        <ele>95.79</ele>
        <time>2021-07-29T08:57:44Z</time>
      </trkpt>
      <trkpt lat="47.38655" lon="0.92217">
        <ele>95.79</ele>
        <time>2021-07-29T08:57:52Z</time>
      </trkpt>
      <trkpt lat="47.38641" lon="0.92223">
        <ele>96.27</ele>
        <time>2021-07-29T08:58:07Z</time>
      </trkpt>
      <trkpt lat="47.38618" lon="0.92231">
        <ele>96.27</ele>
        <time>2021-07-29T08:58:23Z</time>
      </trkpt>
      <trkpt lat="47.38604" lon="0.92234">
        <ele>97.23</ele>
        <time>2021-07-29T08:58:35Z</time>
      </trkpt>
      <trkpt lat="47.38592" lon="0.92233">
        <ele>97.71</ele>
        <time>2021-07-29T08:58:47Z</time>
      </trkpt>
      <trkpt lat="47.38589" lon="0.92233">
        <ele>97.23</ele>
        <time>2021-07-29T08:58:50Z</time>
      </trkpt>
      <trkpt lat="47.3857" lon="0.9223">
        <ele>96.75</ele>
        <time>2021-07-29T08:59:06Z</time>
      </trkpt>
      <trkpt lat="47.38552" lon="0.92226">
        <ele>96.75</ele>
        <time>2021-07-29T08:59:21Z</time>
      </trkpt>
      <trkpt lat="47.38533" lon="0.92219">
        <ele>96.27</ele>
        <time>2021-07-29T08:59:40Z</time>
      </trkpt>
      <trkpt lat="47.38512" lon="0.9221">
        <ele>95.79</ele>
        <time>2021-07-29T08:59:59Z</time>
      </trkpt>
      <trkpt lat="47.38499" lon="0.92197">
        <ele>95.31</ele>
        <time>2021-07-29T09:00:18Z</time>
      </trkpt>
      <trkpt lat="47.38481" lon="0.92178">
        <ele>95.79</ele>
        <time>2021-07-29T09:00:35Z</time>
      </trkpt>
      <trkpt lat="47.38464" lon="0.92157">
        <ele>95.31</ele>
        <time>2021-07-29T09:00:53Z</time>
      </trkpt>
      <trkpt lat="47.38447" lon="0.92135">
        <ele>95.79</ele>
        <time>2021-07-29T09:01:12Z</time>
      </trkpt>
      <trkpt lat="47.38433" lon="0.92115">
        <ele>96.27</ele>
        <time>2021-07-29T09:01:33Z</time>
      </trkpt>
      <trkpt lat="47.3843" lon="0.92109">
        <ele>95.79</ele>
        <time>2021-07-29T09:02:03Z</time>
      </trkpt>
      <trkpt lat="47.38431" lon="0.92109">
        <ele>95.79</ele>
        <time>2021-07-29T09:02:31Z</time>
      </trkpt>
      <trkpt lat="47.38425" lon="0.92114">
        <ele>95.79</ele>
        <time>2021-07-29T09:03:05Z</time>
      </trkpt>
      <trkpt lat="47.38432" lon="0.92116">
        <ele>95.79</ele>
        <time>2021-07-29T09:03:26Z</time>
      </trkpt>
      <trkpt lat="47.38432" lon="0.92125">
        <ele>95.79</ele>
        <time>2021-07-29T09:03:57Z</time>
      </trkpt>
      <trkpt lat="47.38424" lon="0.92132">
        <ele>96.27</ele>
        <time>2021-07-29T09:04:35Z</time>
      </trkpt>
      <trkpt lat="47.3842" lon="0.92104">
        <ele>95.79</ele>
        <time>2021-07-29T09:04:59Z</time>
      </trkpt>
      <trkpt lat="47.38407" lon="0.92085">
        <ele>96.27</ele>
        <time>2021-07-29T09:05:18Z</time>
      </trkpt>
      <trkpt lat="47.38395" lon="0.92068">
        <ele>96.75</ele>
        <time>2021-07-29T09:05:34Z</time>
      </trkpt>
      <trkpt lat="47.38392" lon="0.92066">
        <ele>96.75</ele>
        <time>2021-07-29T09:05:37Z</time>
      </trkpt>
      <trkpt lat="47.38375" lon="0.92046">
        <ele>97.23</ele>
        <time>2021-07-29T09:05:57Z</time>
      </trkpt>
      <trkpt lat="47.3836" lon="0.92027">
        <ele>98.19</ele>
        <time>2021-07-29T09:06:14Z</time>
      </trkpt>
      <trkpt lat="47.38346" lon="0.9201">
        <ele>99.15</ele>
        <time>2021-07-29T09:06:32Z</time>
      </trkpt>
      <trkpt lat="47.38328" lon="0.91986">
        <ele>99.15</ele>
        <time>2021-07-29T09:06:52Z</time>
      </trkpt>
      <trkpt lat="47.38314" lon="0.91974">
        <ele>100.11</ele>
        <time>2021-07-29T09:07:09Z</time>
      </trkpt>
      <trkpt lat="47.38299" lon="0.91954">
        <ele>100.11</ele>
        <time>2021-07-29T09:07:26Z</time>
      </trkpt>
      <trkpt lat="47.3828" lon="0.91932">
        <ele>100.11</ele>
        <time>2021-07-29T09:07:46Z</time>
      </trkpt>
      <trkpt lat="47.38262" lon="0.91913">
        <ele>99.63</ele>
        <time>2021-07-29T09:08:04Z</time>
      </trkpt>
      <trkpt lat="47.38249" lon="0.91896">
        <ele>99.63</ele>
        <time>2021-07-29T09:08:21Z</time>
      </trkpt>
      <trkpt lat="47.38234" lon="0.91876">
        <ele>99.15</ele>
        <time>2021-07-29T09:08:38Z</time>
      </trkpt>
      <trkpt lat="47.38213" lon="0.91853">
        <ele>99.63</ele>
        <time>2021-07-29T09:08:59Z</time>
      </trkpt>
      <trkpt lat="47.38195" lon="0.91832">
        <ele>99.63</ele>
        <time>2021-07-29T09:09:19Z</time>
      </trkpt>
      <trkpt lat="47.38181" lon="0.91814">
        <ele>100.6</ele>
        <time>2021-07-29T09:09:36Z</time>
      </trkpt>
      <trkpt lat="47.38176" lon="0.91803">
        <ele>99.63</ele>
        <time>2021-07-29T09:09:52Z</time>
      </trkpt>
      <trkpt lat="47.3818" lon="0.91798">
        <ele>100.11</ele>
        <time>2021-07-29T09:10:17Z</time>
      </trkpt>
      <trkpt lat="47.38175" lon="0.91792">
        <ele>99.63</ele>
        <time>2021-07-29T09:10:35Z</time>
      </trkpt>
      <trkpt lat="47.38164" lon="0.91781">
        <ele>99.63</ele>
        <time>2021-07-29T09:10:52Z</time>
      </trkpt>
      <trkpt lat="47.38146" lon="0.9177">
        <ele>99.15</ele>
        <time>2021-07-29T09:11:10Z</time>
      </trkpt>
      <trkpt lat="47.38125" lon="0.91757">
        <ele>99.15</ele>
        <time>2021-07-29T09:11:29Z</time>
      </trkpt>
      <trkpt lat="47.38105" lon="0.91746">
        <ele>98.67</ele>
        <time>2021-07-29T09:11:49Z</time>
      </trkpt>
      <trkpt lat="47.38084" lon="0.91735">
        <ele>99.15</ele>
        <time>2021-07-29T09:12:10Z</time>
      </trkpt>
      <trkpt lat="47.38064" lon="0.91725">
        <ele>99.63</ele>
        <time>2021-07-29T09:12:30Z</time>
      </trkpt>
      <trkpt lat="47.38046" lon="0.91712">
        <ele>100.11</ele>
        <time>2021-07-29T09:12:49Z</time>
      </trkpt>
      <trkpt lat="47.38027" lon="0.917">
        <ele>100.6</ele>
        <time>2021-07-29T09:13:08Z</time>
      </trkpt>
      <trkpt lat="47.38019" lon="0.91688">
        <ele>100.6</ele>
        <time>2021-07-29T09:13:22Z</time>
      </trkpt>
      <trkpt lat="47.38018" lon="0.91679">
        <ele>101.56</ele>
        <time>2021-07-29T09:13:38Z</time>
      </trkpt>
      <trkpt lat="47.38017" lon="0.91676">
        <ele>100.6</ele>
        <time>2021-07-29T09:13:54Z</time>
      </trkpt>
      <trkpt lat="47.38018" lon="0.91676">
        <ele>101.56</ele>
        <time>2021-07-29T09:14:14Z</time>
      </trkpt>
      <trkpt lat="47.38004" lon="0.91687">
        <ele>102.04</ele>
        <time>2021-07-29T09:14:32Z</time>
      </trkpt>
      <trkpt lat="47.37987" lon="0.91675">
        <ele>102.52</ele>
        <time>2021-07-29T09:14:49Z</time>
      </trkpt>
      <trkpt lat="47.37967" lon="0.91662">
        <ele>103.48</ele>
        <time>2021-07-29T09:15:09Z</time>
      </trkpt>
      <trkpt lat="47.37951" lon="0.91655">
        <ele>103.48</ele>
        <time>2021-07-29T09:15:26Z</time>
      </trkpt>
      <trkpt lat="47.3793" lon="0.9164">
        <ele>104.44</ele>
        <time>2021-07-29T09:15:44Z</time>
      </trkpt>
      <trkpt lat="47.37915" lon="0.91629">
        <ele>103.96</ele>
        <time>2021-07-29T09:16:02Z</time>
      </trkpt>
      <trkpt lat="47.37897" lon="0.91621">
        <ele>103.96</ele>
        <time>2021-07-29T09:16:20Z</time>
      </trkpt>
      <trkpt lat="47.37878" lon="0.91611">
        <ele>104.92</ele>
        <time>2021-07-29T09:16:38Z</time>
      </trkpt>
      <trkpt lat="47.37867" lon="0.91614">
        <ele>104.92</ele>
        <time>2021-07-29T09:16:53Z</time>
      </trkpt>
      <trkpt lat="47.37875" lon="0.91625">
        <ele>104.92</ele>
        <time>2021-07-29T09:17:23Z</time>
      </trkpt>
      <trkpt lat="47.37876" lon="0.91622">
        <ele>103.96</ele>
        <time>2021-07-29T09:17:53Z</time>
      </trkpt>
      <trkpt lat="47.37873" lon="0.91614">
        <ele>104.44</ele>
        <time>2021-07-29T09:18:21Z</time>
      </trkpt>
      <trkpt lat="47.37877" lon="0.91633">
        <ele>104.44</ele>
        <time>2021-07-29T09:18:40Z</time>
      </trkpt>
      <trkpt lat="47.37871" lon="0.9164">
        <ele>105.4</ele>
        <time>2021-07-29T09:18:57Z</time>
      </trkpt>
      <trkpt lat="47.37868" lon="0.91648">
        <ele>105.4</ele>
        <time>2021-07-29T09:19:10Z</time>
      </trkpt>
      <trkpt lat="47.37867" lon="0.91651">
        <ele>105.4</ele>
        <time>2021-07-29T09:19:39Z</time>
      </trkpt>
      <trkpt lat="47.37869" lon="0.91665">
        <ele>105.88</ele>
        <time>2021-07-29T09:20:03Z</time>
      </trkpt>
      <trkpt lat="47.37869" lon="0.91691">
        <ele>105.88</ele>
        <time>2021-07-29T09:20:20Z</time>
      </trkpt>
      <trkpt lat="47.37872" lon="0.91714">
        <ele>105.88</ele>
        <time>2021-07-29T09:20:34Z</time>
      </trkpt>
      <trkpt lat="47.37872" lon="0.91723">
        <ele>105.88</ele>
        <time>2021-07-29T09:20:39Z</time>
      </trkpt>
      <trkpt lat="47.37872" lon="0.9175">
        <ele>105.88</ele>
        <time>2021-07-29T09:20:53Z</time>
      </trkpt>
      <trkpt lat="47.37872" lon="0.91778">
        <ele>105.88</ele>
        <time>2021-07-29T09:21:08Z</time>
      </trkpt>
      <trkpt lat="47.37873" lon="0.91804">
        <ele>105.88</ele>
        <time>2021-07-29T09:21:22Z</time>
      </trkpt>
      <trkpt lat="47.37873" lon="0.91823">
        <ele>105.88</ele>
        <time>2021-07-29T09:21:34Z</time>
      </trkpt>
      <trkpt lat="47.37874" lon="0.91845">
        <ele>105.4</ele>
        <time>2021-07-29T09:21:46Z</time>
      </trkpt>
      <trkpt lat="47.37876" lon="0.91868">
        <ele>105.88</ele>
        <time>2021-07-29T09:22:00Z</time>
      </trkpt>
      <trkpt lat="47.37877" lon="0.91897">
        <ele>106.36</ele>
        <time>2021-07-29T09:22:14Z</time>
      </trkpt>
      <trkpt lat="47.37876" lon="0.91921">
        <ele>106.36</ele>
        <time>2021-07-29T09:22:29Z</time>
      </trkpt>
      <trkpt lat="47.37874" lon="0.91943">
        <ele>106.36</ele>
        <time>2021-07-29T09:22:42Z</time>
      </trkpt>
      <trkpt lat="47.37874" lon="0.91966">
        <ele>107.32</ele>
        <time>2021-07-29T09:22:58Z</time>
      </trkpt>
      <trkpt lat="47.37875" lon="0.91977">
        <ele>106.84</ele>
        <time>2021-07-29T09:23:10Z</time>
      </trkpt>
      <trkpt lat="47.37876" lon="0.91989">
        <ele>107.81</ele>
        <time>2021-07-29T09:23:27Z</time>
      </trkpt>
      <trkpt lat="47.37877" lon="0.92015">
        <ele>107.32</ele>
        <time>2021-07-29T09:23:45Z</time>
      </trkpt>
      <trkpt lat="47.37874" lon="0.9204">
        <ele>107.81</ele>
        <time>2021-07-29T09:23:57Z</time>
      </trkpt>
      <trkpt lat="47.37877" lon="0.92065">
        <ele>108.29</ele>
        <time>2021-07-29T09:24:15Z</time>
      </trkpt>
      <trkpt lat="47.37878" lon="0.92082">
        <ele>108.29</ele>
        <time>2021-07-29T09:24:27Z</time>
      </trkpt>
      <trkpt lat="47.37877" lon="0.92115">
        <ele>107.81</ele>
        <time>2021-07-29T09:24:45Z</time>
      </trkpt>
      <trkpt lat="47.37881" lon="0.92136">
        <ele>107.81</ele>
        <time>2021-07-29T09:24:58Z</time>
      </trkpt>
      <trkpt lat="47.37879" lon="0.92156">
        <ele>108.29</ele>
        <time>2021-07-29T09:25:11Z</time>
      </trkpt>
      <trkpt lat="47.37878" lon="0.9218">
        <ele>107.32</ele>
        <time>2021-07-29T09:25:29Z</time>
      </trkpt>
      <trkpt lat="47.3788" lon="0.92199">
        <ele>107.81</ele>
        <time>2021-07-29T09:25:44Z</time>
      </trkpt>
      <trkpt lat="47.3788" lon="0.92224">
        <ele>107.81</ele>
        <time>2021-07-29T09:26:00Z</time>
      </trkpt>
      <trkpt lat="47.3788" lon="0.92247">
        <ele>108.29</ele>
        <time>2021-07-29T09:26:16Z</time>
      </trkpt>
      <trkpt lat="47.37879" lon="0.92274">
        <ele>108.29</ele>
        <time>2021-07-29T09:26:32Z</time>
      </trkpt>
      <trkpt lat="47.3788" lon="0.92296">
        <ele>108.77</ele>
        <time>2021-07-29T09:26:47Z</time>
      </trkpt>
      <trkpt lat="47.37885" lon="0.92321">
        <ele>108.77</ele>
        <time>2021-07-29T09:27:01Z</time>
      </trkpt>
      <trkpt lat="47.37884" lon="0.92331">
        <ele>108.77</ele>
        <time>2021-07-29T09:27:09Z</time>
      </trkpt>
      <trkpt lat="47.37881" lon="0.92346">
        <ele>109.25</ele>
        <time>2021-07-29T09:27:23Z</time>
      </trkpt>
      <trkpt lat="47.37882" lon="0.92384">
        <ele>109.25</ele>
        <time>2021-07-29T09:27:42Z</time>
      </trkpt>
      <trkpt lat="47.37882" lon="0.92405">
        <ele>109.73</ele>
        <time>2021-07-29T09:27:56Z</time>
      </trkpt>
      <trkpt lat="47.37885" lon="0.92426">
        <ele>109.25</ele>
        <time>2021-07-29T09:28:10Z</time>
      </trkpt>
      <trkpt lat="47.37884" lon="0.92454">
        <ele>109.25</ele>
        <time>2021-07-29T09:28:27Z</time>
      </trkpt>
      <trkpt lat="47.37884" lon="0.92472">
        <ele>108.77</ele>
        <time>2021-07-29T09:28:41Z</time>
      </trkpt>
      <trkpt lat="47.37884" lon="0.92497">
        <ele>109.25</ele>
        <time>2021-07-29T09:28:57Z</time>
      </trkpt>
      <trkpt lat="47.37886" lon="0.92516">
        <ele>109.25</ele>
        <time>2021-07-29T09:29:09Z</time>
      </trkpt>
      <trkpt lat="47.37887" lon="0.92536">
        <ele>109.25</ele>
        <time>2021-07-29T09:29:22Z</time>
      </trkpt>
      <trkpt lat="47.37885" lon="0.92558">
        <ele>109.73</ele>
        <time>2021-07-29T09:29:37Z</time>
      </trkpt>
      <trkpt lat="47.37888" lon="0.92581">
        <ele>108.77</ele>
        <time>2021-07-29T09:29:52Z</time>
      </trkpt>
      <trkpt lat="47.37889" lon="0.92604">
        <ele>108.77</ele>
        <time>2021-07-29T09:30:05Z</time>
      </trkpt>
      <trkpt lat="47.37892" lon="0.92606">
        <ele>108.77</ele>
        <time>2021-07-29T09:30:24Z</time>
      </trkpt>
      <trkpt lat="47.37885" lon="0.92609">
        <ele>109.25</ele>
        <time>2021-07-29T09:30:56Z</time>
      </trkpt>
      <trkpt lat="47.3789" lon="0.92631">
        <ele>108.29</ele>
        <time>2021-07-29T09:31:15Z</time>
      </trkpt>
      <trkpt lat="47.37891" lon="0.92655">
        <ele>108.77</ele>
        <time>2021-07-29T09:31:29Z</time>
      </trkpt>
      <trkpt lat="47.37892" lon="0.92681">
        <ele>109.25</ele>
        <time>2021-07-29T09:31:46Z</time>
      </trkpt>
      <trkpt lat="47.37892" lon="0.9269">
        <ele>108.77</ele>
        <time>2021-07-29T09:31:51Z</time>
      </trkpt>
      <trkpt lat="47.37894" lon="0.92716">
        <ele>109.25</ele>
        <time>2021-07-29T09:32:07Z</time>
      </trkpt>
      <trkpt lat="47.37891" lon="0.92744">
        <ele>108.77</ele>
        <time>2021-07-29T09:32:24Z</time>
      </trkpt>
      <trkpt lat="47.3789" lon="0.92761">
        <ele>108.77</ele>
        <time>2021-07-29T09:32:40Z</time>
      </trkpt>
      <trkpt lat="47.37893" lon="0.92782">
        <ele>108.77</ele>
        <time>2021-07-29T09:32:52Z</time>
      </trkpt>
      <trkpt lat="47.37891" lon="0.92807">
        <ele>108.77</ele>
        <time>2021-07-29T09:33:07Z</time>
      </trkpt>
      <trkpt lat="47.37893" lon="0.92831">
        <ele>109.73</ele>
        <time>2021-07-29T09:33:21Z</time>
      </trkpt>
      <trkpt lat="47.37894" lon="0.92857">
        <ele>109.25</ele>
        <time>2021-07-29T09:33:34Z</time>
      </trkpt>
      <trkpt lat="47.37894" lon="0.92879">
        <ele>109.25</ele>
        <time>2021-07-29T09:33:49Z</time>
      </trkpt>
      <trkpt lat="47.37896" lon="0.92898">
        <ele>109.73</ele>
        <time>2021-07-29T09:34:04Z</time>
      </trkpt>
      <trkpt lat="47.37895" lon="0.92927">
        <ele>110.21</ele>
        <time>2021-07-29T09:34:18Z</time>
      </trkpt>
      <trkpt lat="47.37896" lon="0.92946">
        <ele>110.21</ele>
        <time>2021-07-29T09:34:33Z</time>
      </trkpt>
      <trkpt lat="47.37895" lon="0.92958">
        <ele>109.73</ele>
        <time>2021-07-29T09:34:46Z</time>
      </trkpt>
      <trkpt lat="47.37895" lon="0.92977">
        <ele>110.21</ele>
        <time>2021-07-29T09:34:59Z</time>
      </trkpt>
      <trkpt lat="47.37895" lon="0.92988">
        <ele>109.25</ele>
        <time>2021-07-29T09:35:17Z</time>
      </trkpt>
      <trkpt lat="47.37896" lon="0.9301">
        <ele>109.73</ele>
        <time>2021-07-29T09:35:32Z</time>
      </trkpt>
      <trkpt lat="47.37897" lon="0.93024">
        <ele>109.73</ele>
        <time>2021-07-29T09:35:45Z</time>
      </trkpt>
      <trkpt lat="47.37897" lon="0.93054">
        <ele>109.73</ele>
        <time>2021-07-29T09:36:00Z</time>
      </trkpt>
      <trkpt lat="47.37898" lon="0.93074">
        <ele>109.25</ele>
        <time>2021-07-29T09:36:14Z</time>
      </trkpt>
      <trkpt lat="47.379" lon="0.93095">
        <ele>109.73</ele>
        <time>2021-07-29T09:36:28Z</time>
      </trkpt>
      <trkpt lat="47.379" lon="0.93113">
        <ele>110.21</ele>
        <time>2021-07-29T09:36:43Z</time>
      </trkpt>
      <trkpt lat="47.37902" lon="0.93139">
        <ele>109.73</ele>
        <time>2021-07-29T09:36:58Z</time>
      </trkpt>
      <trkpt lat="47.37897" lon="0.93163">
        <ele>109.73</ele>
        <time>2021-07-29T09:37:12Z</time>
      </trkpt>
      <trkpt lat="47.37899" lon="0.93191">
        <ele>110.21</ele>
        <time>2021-07-29T09:37:30Z</time>
      </trkpt>
      <trkpt lat="47.37899" lon="0.93216">
        <ele>110.21</ele>
        <time>2021-07-29T09:37:44Z</time>
      </trkpt>
      <trkpt lat="47.379" lon="0.93242">
        <ele>109.25</ele>
        <time>2021-07-29T09:37:59Z</time>
      </trkpt>
      <trkpt lat="47.37901" lon="0.9327">
        <ele>108.77</ele>
        <time>2021-07-29T09:38:16Z</time>
      </trkpt>
      <trkpt lat="47.37903" lon="0.9329">
        <ele>108.77</ele>
        <time>2021-07-29T09:38:29Z</time>
      </trkpt>
      <trkpt lat="47.37901" lon="0.9332">
        <ele>109.25</ele>
        <time>2021-07-29T09:38:44Z</time>
      </trkpt>
      <trkpt lat="47.379" lon="0.93343">
        <ele>109.73</ele>
        <time>2021-07-29T09:39:00Z</time>
      </trkpt>
      <trkpt lat="47.37901" lon="0.93373">
        <ele>108.77</ele>
        <time>2021-07-29T09:39:17Z</time>
      </trkpt>
      <trkpt lat="47.37902" lon="0.93396">
        <ele>108.77</ele>
        <time>2021-07-29T09:39:32Z</time>
      </trkpt>
      <trkpt lat="47.37904" lon="0.93418">
        <ele>108.77</ele>
        <time>2021-07-29T09:39:46Z</time>
      </trkpt>
      <trkpt lat="47.37905" lon="0.93448">
        <ele>108.77</ele>
        <time>2021-07-29T09:40:01Z</time>
      </trkpt>
      <trkpt lat="47.37906" lon="0.93472">
        <ele>108.77</ele>
        <time>2021-07-29T09:40:17Z</time>
      </trkpt>
      <trkpt lat="47.37907" lon="0.935">
        <ele>108.77</ele>
        <time>2021-07-29T09:40:31Z</time>
      </trkpt>
      <trkpt lat="47.37908" lon="0.93525">
        <ele>108.77</ele>
        <time>2021-07-29T09:40:46Z</time>
      </trkpt>
      <trkpt lat="47.37908" lon="0.93544">
        <ele>109.25</ele>
        <time>2021-07-29T09:40:58Z</time>
      </trkpt>
      <trkpt lat="47.37909" lon="0.93564">
        <ele>109.25</ele>
        <time>2021-07-29T09:41:14Z</time>
      </trkpt>
      <trkpt lat="47.37911" lon="0.93595">
        <ele>109.73</ele>
        <time>2021-07-29T09:41:30Z</time>
      </trkpt>
      <trkpt lat="47.37911" lon="0.93596">
        <ele>109.73</ele>
        <time>2021-07-29T09:41:31Z</time>
      </trkpt>
      <trkpt lat="47.3791" lon="0.93625">
        <ele>109.25</ele>
        <time>2021-07-29T09:41:48Z</time>
      </trkpt>
      <trkpt lat="47.37909" lon="0.93631">
        <ele>109.25</ele>
        <time>2021-07-29T09:41:52Z</time>
      </trkpt>
      <trkpt lat="47.37908" lon="0.93648">
        <ele>109.73</ele>
        <time>2021-07-29T09:42:05Z</time>
      </trkpt>
      <trkpt lat="47.3791" lon="0.9366">
        <ele>109.25</ele>
        <time>2021-07-29T09:42:21Z</time>
      </trkpt>
      <trkpt lat="47.37913" lon="0.93662">
        <ele>108.29</ele>
        <time>2021-07-29T09:42:47Z</time>
      </trkpt>
      <trkpt lat="47.37907" lon="0.93651">
        <ele>109.25</ele>
        <time>2021-07-29T09:43:13Z</time>
      </trkpt>
      <trkpt lat="47.37912" lon="0.93641">
        <ele>108.77</ele>
        <time>2021-07-29T09:43:27Z</time>
      </trkpt>
      <trkpt lat="47.37918" lon="0.93642">
        <ele>108.29</ele>
        <time>2021-07-29T09:43:59Z</time>
      </trkpt>
      <trkpt lat="47.37911" lon="0.93638">
        <ele>108.77</ele>
        <time>2021-07-29T09:44:30Z</time>
      </trkpt>
      <trkpt lat="47.3791" lon="0.93639">
        <ele>110.21</ele>
        <time>2021-07-29T09:45:04Z</time>
      </trkpt>
      <trkpt lat="47.37912" lon="0.93653">
        <ele>110.21</ele>
        <time>2021-07-29T09:45:21Z</time>
      </trkpt>
      <trkpt lat="47.37907" lon="0.9366">
        <ele>110.69</ele>
        <time>2021-07-29T09:45:38Z</time>
      </trkpt>
      <trkpt lat="47.37906" lon="0.93688">
        <ele>110.21</ele>
        <time>2021-07-29T09:45:55Z</time>
      </trkpt>
      <trkpt lat="47.37909" lon="0.93709">
        <ele>110.21</ele>
        <time>2021-07-29T09:46:10Z</time>
      </trkpt>
      <trkpt lat="47.3791" lon="0.93731">
        <ele>110.69</ele>
        <time>2021-07-29T09:46:29Z</time>
      </trkpt>
      <trkpt lat="47.37914" lon="0.93759">
        <ele>110.69</ele>
        <time>2021-07-29T09:46:48Z</time>
      </trkpt>
      <trkpt lat="47.37915" lon="0.93777">
        <ele>110.21</ele>
        <time>2021-07-29T09:47:03Z</time>
      </trkpt>
      <trkpt lat="47.37914" lon="0.93796">
        <ele>110.69</ele>
        <time>2021-07-29T09:47:18Z</time>
      </trkpt>
      <trkpt lat="47.37913" lon="0.93811">
        <ele>110.69</ele>
        <time>2021-07-29T09:47:32Z</time>
      </trkpt>
      <trkpt lat="47.37915" lon="0.93832">
        <ele>111.17</ele>
        <time>2021-07-29T09:47:48Z</time>
      </trkpt>
      <trkpt lat="47.37915" lon="0.93854">
        <ele>110.69</ele>
        <time>2021-07-29T09:48:05Z</time>
      </trkpt>
      <trkpt lat="47.37914" lon="0.9389">
        <ele>109.73</ele>
        <time>2021-07-29T09:48:23Z</time>
      </trkpt>
      <trkpt lat="47.37913" lon="0.93903">
        <ele>110.21</ele>
        <time>2021-07-29T09:48:34Z</time>
      </trkpt>
      <trkpt lat="47.37914" lon="0.93932">
        <ele>110.21</ele>
        <time>2021-07-29T09:48:51Z</time>
      </trkpt>
      <trkpt lat="47.37915" lon="0.93949">
        <ele>110.69</ele>
        <time>2021-07-29T09:49:05Z</time>
      </trkpt>
      <trkpt lat="47.37915" lon="0.93973">
        <ele>110.21</ele>
        <time>2021-07-29T09:49:19Z</time>
      </trkpt>
      <trkpt lat="47.3792" lon="0.94004">
        <ele>110.21</ele>
        <time>2021-07-29T09:49:36Z</time>
      </trkpt>
      <trkpt lat="47.37921" lon="0.94026">
        <ele>110.21</ele>
        <time>2021-07-29T09:49:51Z</time>
      </trkpt>
      <trkpt lat="47.3792" lon="0.94045">
        <ele>110.21</ele>
        <time>2021-07-29T09:50:06Z</time>
      </trkpt>
      <trkpt lat="47.37921" lon="0.94062">
        <ele>109.73</ele>
        <time>2021-07-29T09:50:21Z</time>
      </trkpt>
      <trkpt lat="47.37921" lon="0.94083">
        <ele>110.21</ele>
        <time>2021-07-29T09:50:36Z</time>
      </trkpt>
      <trkpt lat="47.37918" lon="0.94094">
        <ele>109.73</ele>
        <time>2021-07-29T09:50:49Z</time>
      </trkpt>
      <trkpt lat="47.37914" lon="0.94107">
        <ele>110.21</ele>
        <time>2021-07-29T09:51:17Z</time>
      </trkpt>
      <trkpt lat="47.37924" lon="0.94107">
        <ele>109.73</ele>
        <time>2021-07-29T09:51:45Z</time>
      </trkpt>
      <trkpt lat="47.37921" lon="0.94104">
        <ele>110.21</ele>
        <time>2021-07-29T09:52:11Z</time>
      </trkpt>
      <trkpt lat="47.37919" lon="0.941">
        <ele>110.69</ele>
        <time>2021-07-29T09:52:35Z</time>
      </trkpt>
      <trkpt lat="47.37909" lon="0.94106">
        <ele>110.69</ele>
        <time>2021-07-29T09:53:09Z</time>
      </trkpt>
      <trkpt lat="47.37906" lon="0.94112">
        <ele>110.69</ele>
        <time>2021-07-29T09:53:41Z</time>
      </trkpt>
      <trkpt lat="47.37909" lon="0.94105">
        <ele>111.17</ele>
        <time>2021-07-29T09:54:13Z</time>
      </trkpt>
      <trkpt lat="47.37907" lon="0.94113">
        <ele>111.65</ele>
        <time>2021-07-29T09:54:36Z</time>
      </trkpt>
      <trkpt lat="47.37917" lon="0.94117">
        <ele>111.65</ele>
        <time>2021-07-29T09:54:49Z</time>
      </trkpt>
      <trkpt lat="47.37924" lon="0.94115">
        <ele>111.65</ele>
        <time>2021-07-29T09:55:02Z</time>
      </trkpt>
      <trkpt lat="47.37922" lon="0.94138">
        <ele>111.65</ele>
        <time>2021-07-29T09:55:18Z</time>
      </trkpt>
      <trkpt lat="47.37922" lon="0.94161">
        <ele>111.17</ele>
        <time>2021-07-29T09:55:32Z</time>
      </trkpt>
      <trkpt lat="47.37923" lon="0.94144">
        <ele>111.65</ele>
        <time>2021-07-29T09:55:49Z</time>
      </trkpt>
      <trkpt lat="47.37928" lon="0.9415">
        <ele>111.65</ele>
        <time>2021-07-29T09:55:57Z</time>
      </trkpt>
      <trkpt lat="47.37929" lon="0.94153">
        <ele>112.13</ele>
        <time>2021-07-29T09:55:59Z</time>
      </trkpt>
      <trkpt lat="47.37934" lon="0.94173">
        <ele>112.13</ele>
        <time>2021-07-29T09:56:11Z</time>
      </trkpt>
      <trkpt lat="47.37944" lon="0.94182">
        <ele>111.65</ele>
        <time>2021-07-29T09:56:22Z</time>
      </trkpt>
      <trkpt lat="47.37951" lon="0.94199">
        <ele>111.65</ele>
        <time>2021-07-29T09:56:37Z</time>
      </trkpt>
      <trkpt lat="47.37956" lon="0.94214">
        <ele>112.13</ele>
        <time>2021-07-29T09:56:54Z</time>
      </trkpt>
      <trkpt lat="47.37965" lon="0.94228">
        <ele>112.13</ele>
        <time>2021-07-29T09:57:07Z</time>
      </trkpt>
      <trkpt lat="47.37968" lon="0.94234">
        <ele>111.65</ele>
        <time>2021-07-29T09:57:12Z</time>
      </trkpt>
      <trkpt lat="47.37975" lon="0.94249">
        <ele>112.13</ele>
        <time>2021-07-29T09:57:23Z</time>
      </trkpt>
      <trkpt lat="47.37984" lon="0.9427">
        <ele>113.09</ele>
        <time>2021-07-29T09:57:39Z</time>
      </trkpt>
      <trkpt lat="47.37993" lon="0.9429">
        <ele>112.61</ele>
        <time>2021-07-29T09:57:52Z</time>
      </trkpt>
      <trkpt lat="47.38003" lon="0.94309">
        <ele>112.61</ele>
        <time>2021-07-29T09:58:06Z</time>
      </trkpt>
      <trkpt lat="47.38011" lon="0.94316">
        <ele>112.61</ele>
        <time>2021-07-29T09:58:19Z</time>
      </trkpt>
      <trkpt lat="47.38021" lon="0.94317">
        <ele>112.61</ele>
        <time>2021-07-29T09:58:33Z</time>
      </trkpt>
      <trkpt lat="47.38033" lon="0.94323">
        <ele>112.13</ele>
        <time>2021-07-29T09:58:46Z</time>
      </trkpt>
      <trkpt lat="47.38038" lon="0.94326">
        <ele>112.61</ele>
        <time>2021-07-29T09:58:52Z</time>
      </trkpt>
      <trkpt lat="47.3805" lon="0.94332">
        <ele>111.65</ele>
        <time>2021-07-29T09:59:06Z</time>
      </trkpt>
      <trkpt lat="47.38071" lon="0.94346">
        <ele>112.13</ele>
        <time>2021-07-29T09:59:23Z</time>
      </trkpt>
      <trkpt lat="47.38085" lon="0.94351">
        <ele>112.13</ele>
        <time>2021-07-29T09:59:39Z</time>
      </trkpt>
      <trkpt lat="47.38099" lon="0.94358">
        <ele>112.13</ele>
        <time>2021-07-29T09:59:53Z</time>
      </trkpt>
      <trkpt lat="47.3811" lon="0.94363">
        <ele>111.65</ele>
        <time>2021-07-29T10:00:03Z</time>
      </trkpt>
      <trkpt lat="47.38121" lon="0.94369">
        <ele>112.13</ele>
        <time>2021-07-29T10:00:16Z</time>
      </trkpt>
      <trkpt lat="47.38134" lon="0.94376">
        <ele>111.65</ele>
        <time>2021-07-29T10:00:31Z</time>
      </trkpt>
      <trkpt lat="47.38153" lon="0.94386">
        <ele>111.65</ele>
        <time>2021-07-29T10:00:47Z</time>
      </trkpt>
      <trkpt lat="47.38168" lon="0.94391">
        <ele>112.13</ele>
        <time>2021-07-29T10:01:02Z</time>
      </trkpt>
      <trkpt lat="47.38181" lon="0.94398">
        <ele>112.61</ele>
        <time>2021-07-29T10:01:17Z</time>
      </trkpt>
      <trkpt lat="47.38196" lon="0.94407">
        <ele>112.61</ele>
        <time>2021-07-29T10:01:33Z</time>
      </trkpt>
      <trkpt lat="47.3821" lon="0.94415">
        <ele>113.09</ele>
        <time>2021-07-29T10:01:48Z</time>
      </trkpt>
      <trkpt lat="47.38224" lon="0.94424">
        <ele>113.09</ele>
        <time>2021-07-29T10:02:01Z</time>
      </trkpt>
      <trkpt lat="47.38238" lon="0.9443">
        <ele>113.57</ele>
        <time>2021-07-29T10:02:14Z</time>
      </trkpt>
      <trkpt lat="47.38249" lon="0.94437">
        <ele>114.05</ele>
        <time>2021-07-29T10:02:29Z</time>
      </trkpt>
      <trkpt lat="47.38264" lon="0.94444">
        <ele>113.57</ele>
        <time>2021-07-29T10:02:40Z</time>
      </trkpt>
      <trkpt lat="47.38279" lon="0.94451">
        <ele>114.05</ele>
        <time>2021-07-29T10:02:56Z</time>
      </trkpt>
      <trkpt lat="47.38297" lon="0.94458">
        <ele>114.05</ele>
        <time>2021-07-29T10:03:11Z</time>
      </trkpt>
      <trkpt lat="47.3831" lon="0.94463">
        <ele>114.53</ele>
        <time>2021-07-29T10:03:25Z</time>
      </trkpt>
      <trkpt lat="47.38316" lon="0.94466">
        <ele>114.05</ele>
        <time>2021-07-29T10:03:38Z</time>
      </trkpt>
      <trkpt lat="47.38325" lon="0.94471">
        <ele>114.05</ele>
        <time>2021-07-29T10:03:52Z</time>
      </trkpt>
      <trkpt lat="47.38342" lon="0.94481">
        <ele>114.53</ele>
        <time>2021-07-29T10:04:04Z</time>
      </trkpt>
      <trkpt lat="47.38357" lon="0.94493">
        <ele>114.05</ele>
        <time>2021-07-29T10:04:18Z</time>
      </trkpt>
      <trkpt lat="47.38367" lon="0.94496">
        <ele>114.53</ele>
        <time>2021-07-29T10:04:34Z</time>
      </trkpt>
      <trkpt lat="47.38381" lon="0.94504">
        <ele>114.53</ele>
        <time>2021-07-29T10:04:47Z</time>
      </trkpt>
      <trkpt lat="47.38401" lon="0.94513">
        <ele>113.57</ele>
        <time>2021-07-29T10:05:04Z</time>
      </trkpt>
      <trkpt lat="47.38418" lon="0.94518">
        <ele>114.05</ele>
        <time>2021-07-29T10:05:20Z</time>
      </trkpt>
      <trkpt lat="47.38428" lon="0.94525">
        <ele>114.05</ele>
        <time>2021-07-29T10:05:33Z</time>
      </trkpt>
      <trkpt lat="47.38442" lon="0.9453">
        <ele>113.57</ele>
        <time>2021-07-29T10:05:46Z</time>
      </trkpt>
      <trkpt lat="47.38456" lon="0.94536">
        <ele>113.09</ele>
        <time>2021-07-29T10:06:00Z</time>
      </trkpt>
      <trkpt lat="47.38474" lon="0.9455">
        <ele>113.57</ele>
        <time>2021-07-29T10:06:16Z</time>
      </trkpt>
      <trkpt lat="47.38481" lon="0.94556">
        <ele>113.57</ele>
        <time>2021-07-29T10:06:30Z</time>
      </trkpt>
      <trkpt lat="47.38491" lon="0.94559">
        <ele>113.57</ele>
        <time>2021-07-29T10:06:45Z</time>
      </trkpt>
      <trkpt lat="47.38506" lon="0.94569">
        <ele>113.09</ele>
        <time>2021-07-29T10:06:57Z</time>
      </trkpt>
      <trkpt lat="47.38521" lon="0.94582">
        <ele>113.09</ele>
        <time>2021-07-29T10:07:10Z</time>
      </trkpt>
      <trkpt lat="47.38535" lon="0.94592">
        <ele>113.09</ele>
        <time>2021-07-29T10:07:23Z</time>
      </trkpt>
      <trkpt lat="47.38549" lon="0.94599">
        <ele>113.09</ele>
        <time>2021-07-29T10:07:37Z</time>
      </trkpt>
      <trkpt lat="47.3856" lon="0.94604">
        <ele>112.61</ele>
        <time>2021-07-29T10:07:51Z</time>
      </trkpt>
      <trkpt lat="47.38579" lon="0.94607">
        <ele>113.09</ele>
        <time>2021-07-29T10:08:04Z</time>
      </trkpt>
      <trkpt lat="47.38587" lon="0.94616">
        <ele>113.09</ele>
        <time>2021-07-29T10:08:15Z</time>
      </trkpt>
      <trkpt lat="47.38596" lon="0.9462">
        <ele>113.09</ele>
        <time>2021-07-29T10:08:29Z</time>
      </trkpt>
      <trkpt lat="47.38607" lon="0.94624">
        <ele>113.57</ele>
        <time>2021-07-29T10:08:43Z</time>
      </trkpt>
      <trkpt lat="47.38605" lon="0.94629">
        <ele>112.61</ele>
        <time>2021-07-29T10:09:03Z</time>
      </trkpt>
      <trkpt lat="47.38612" lon="0.94621">
        <ele>112.61</ele>
        <time>2021-07-29T10:09:30Z</time>
      </trkpt>
      <trkpt lat="47.38622" lon="0.9462">
        <ele>112.13</ele>
        <time>2021-07-29T10:10:03Z</time>
      </trkpt>
      <trkpt lat="47.38622" lon="0.94623">
        <ele>112.13</ele>
        <time>2021-07-29T10:10:04Z</time>
      </trkpt>
      <trkpt lat="47.38622" lon="0.94659">
        <ele>111.65</ele>
        <time>2021-07-29T10:10:19Z</time>
      </trkpt>
      <trkpt lat="47.38623" lon="0.94677">
        <ele>112.13</ele>
        <time>2021-07-29T10:10:34Z</time>
      </trkpt>
      <trkpt lat="47.38627" lon="0.94692">
        <ele>112.13</ele>
        <time>2021-07-29T10:10:49Z</time>
      </trkpt>
      <trkpt lat="47.38631" lon="0.94706">
        <ele>112.13</ele>
        <time>2021-07-29T10:11:02Z</time>
      </trkpt>
      <trkpt lat="47.38637" lon="0.94727">
        <ele>111.65</ele>
        <time>2021-07-29T10:11:16Z</time>
      </trkpt>
      <trkpt lat="47.38643" lon="0.94747">
        <ele>112.13</ele>
        <time>2021-07-29T10:11:30Z</time>
      </trkpt>
      <trkpt lat="47.38648" lon="0.94768">
        <ele>111.65</ele>
        <time>2021-07-29T10:11:46Z</time>
      </trkpt>
      <trkpt lat="47.38649" lon="0.94784">
        <ele>111.65</ele>
        <time>2021-07-29T10:11:58Z</time>
      </trkpt>
      <trkpt lat="47.38657" lon="0.94815">
        <ele>112.13</ele>
        <time>2021-07-29T10:12:15Z</time>
      </trkpt>
      <trkpt lat="47.38659" lon="0.9484">
        <ele>111.65</ele>
        <time>2021-07-29T10:12:31Z</time>
      </trkpt>
      <trkpt lat="47.38666" lon="0.94858">
        <ele>111.65</ele>
        <time>2021-07-29T10:12:45Z</time>
      </trkpt>
      <trkpt lat="47.38673" lon="0.94877">
        <ele>111.17</ele>
        <time>2021-07-29T10:13:00Z</time>
      </trkpt>
      <trkpt lat="47.38677" lon="0.94898">
        <ele>111.65</ele>
        <time>2021-07-29T10:13:13Z</time>
      </trkpt>
      <trkpt lat="47.3868" lon="0.94923">
        <ele>111.65</ele>
        <time>2021-07-29T10:13:25Z</time>
      </trkpt>
      <trkpt lat="47.38684" lon="0.94945">
        <ele>111.17</ele>
        <time>2021-07-29T10:13:39Z</time>
      </trkpt>
      <trkpt lat="47.38687" lon="0.94963">
        <ele>111.17</ele>
        <time>2021-07-29T10:13:55Z</time>
      </trkpt>
      <trkpt lat="47.38694" lon="0.9498">
        <ele>111.17</ele>
        <time>2021-07-29T10:14:09Z</time>
      </trkpt>
      <trkpt lat="47.38701" lon="0.95003">
        <ele>111.17</ele>
        <time>2021-07-29T10:14:24Z</time>
      </trkpt>
      <trkpt lat="47.38702" lon="0.95024">
        <ele>110.69</ele>
        <time>2021-07-29T10:14:39Z</time>
      </trkpt>
      <trkpt lat="47.38707" lon="0.95044">
        <ele>111.17</ele>
        <time>2021-07-29T10:14:55Z</time>
      </trkpt>
      <trkpt lat="47.38716" lon="0.95066">
        <ele>111.17</ele>
        <time>2021-07-29T10:15:11Z</time>
      </trkpt>
      <trkpt lat="47.38722" lon="0.95096">
        <ele>111.17</ele>
        <time>2021-07-29T10:15:28Z</time>
      </trkpt>
      <trkpt lat="47.38725" lon="0.95114">
        <ele>110.69</ele>
        <time>2021-07-29T10:15:40Z</time>
      </trkpt>
      <trkpt lat="47.3873" lon="0.95131">
        <ele>111.17</ele>
        <time>2021-07-29T10:15:55Z</time>
      </trkpt>
      <trkpt lat="47.38735" lon="0.95144">
        <ele>111.17</ele>
        <time>2021-07-29T10:16:08Z</time>
      </trkpt>
      <trkpt lat="47.38733" lon="0.95151">
        <ele>111.17</ele>
        <time>2021-07-29T10:16:30Z</time>
      </trkpt>
      <trkpt lat="47.38737" lon="0.95147">
        <ele>110.21</ele>
        <time>2021-07-29T10:16:53Z</time>
      </trkpt>
      <trkpt lat="47.38748" lon="0.95147">
        <ele>109.25</ele>
        <time>2021-07-29T10:17:20Z</time>
      </trkpt>
      <trkpt lat="47.38753" lon="0.95142">
        <ele>109.73</ele>
        <time>2021-07-29T10:17:53Z</time>
      </trkpt>
      <trkpt lat="47.38743" lon="0.95149">
        <ele>110.21</ele>
        <time>2021-07-29T10:18:10Z</time>
      </trkpt>
      <trkpt lat="47.3874" lon="0.95156">
        <ele>110.69</ele>
        <time>2021-07-29T10:18:30Z</time>
      </trkpt>
      <trkpt lat="47.3874" lon="0.95145">
        <ele>111.17</ele>
        <time>2021-07-29T10:18:54Z</time>
      </trkpt>
      <trkpt lat="47.38738" lon="0.95145">
        <ele>111.17</ele>
        <time>2021-07-29T10:19:17Z</time>
      </trkpt>
      <trkpt lat="47.38751" lon="0.95148">
        <ele>111.17</ele>
        <time>2021-07-29T10:19:34Z</time>
      </trkpt>
      <trkpt lat="47.38775" lon="0.95156">
        <ele>111.17</ele>
        <time>2021-07-29T10:19:52Z</time>
      </trkpt>
      <trkpt lat="47.38796" lon="0.95163">
        <ele>111.65</ele>
        <time>2021-07-29T10:20:08Z</time>
      </trkpt>
      <trkpt lat="47.38805" lon="0.95152">
        <ele>111.65</ele>
        <time>2021-07-29T10:20:21Z</time>
      </trkpt>
      <trkpt lat="47.38812" lon="0.95161">
        <ele>111.65</ele>
        <time>2021-07-29T10:20:37Z</time>
      </trkpt>
      <trkpt lat="47.38813" lon="0.95169">
        <ele>112.61</ele>
        <time>2021-07-29T10:20:49Z</time>
      </trkpt>
      <trkpt lat="47.38821" lon="0.9517">
        <ele>111.65</ele>
        <time>2021-07-29T10:21:05Z</time>
      </trkpt>
      <trkpt lat="47.38834" lon="0.95172">
        <ele>112.13</ele>
        <time>2021-07-29T10:21:22Z</time>
      </trkpt>
      <trkpt lat="47.38854" lon="0.95176">
        <ele>112.13</ele>
        <time>2021-07-29T10:21:36Z</time>
      </trkpt>
      <trkpt lat="47.38869" lon="0.9518">
        <ele>112.61</ele>
        <time>2021-07-29T10:21:51Z</time>
      </trkpt>
      <trkpt lat="47.38891" lon="0.95186">
        <ele>111.65</ele>
        <time>2021-07-29T10:22:12Z</time>
      </trkpt>
      <trkpt lat="47.3891" lon="0.95189">
        <ele>111.65</ele>
        <time>2021-07-29T10:22:27Z</time>
      </trkpt>
      <trkpt lat="47.38927" lon="0.95192">
        <ele>111.17</ele>
        <time>2021-07-29T10:22:42Z</time>
      </trkpt>
      <trkpt lat="47.38945" lon="0.95195">
        <ele>111.65</ele>
        <time>2021-07-29T10:23:00Z</time>
      </trkpt>
      <trkpt lat="47.38957" lon="0.95197">
        <ele>111.17</ele>
        <time>2021-07-29T10:23:17Z</time>
      </trkpt>
      <trkpt lat="47.38973" lon="0.95203">
        <ele>110.69</ele>
        <time>2021-07-29T10:23:35Z</time>
      </trkpt>
      <trkpt lat="47.38994" lon="0.95206">
        <ele>110.69</ele>
        <time>2021-07-29T10:23:53Z</time>
      </trkpt>
      <trkpt lat="47.39011" lon="0.9521">
        <ele>110.21</ele>
        <time>2021-07-29T10:24:10Z</time>
      </trkpt>
      <trkpt lat="47.39022" lon="0.95211">
        <ele>109.73</ele>
        <time>2021-07-29T10:24:23Z</time>
      </trkpt>
      <trkpt lat="47.39037" lon="0.95213">
        <ele>109.73</ele>
        <time>2021-07-29T10:24:38Z</time>
      </trkpt>
      <trkpt lat="47.3905" lon="0.95223">
        <ele>109.73</ele>
        <time>2021-07-29T10:24:51Z</time>
      </trkpt>
      <trkpt lat="47.39062" lon="0.95225">
        <ele>110.21</ele>
        <time>2021-07-29T10:25:07Z</time>
      </trkpt>
      <trkpt lat="47.39084" lon="0.95224">
        <ele>109.73</ele>
        <time>2021-07-29T10:25:23Z</time>
      </trkpt>
      <trkpt lat="47.39101" lon="0.95226">
        <ele>109.73</ele>
        <time>2021-07-29T10:25:40Z</time>
      </trkpt>
      <trkpt lat="47.39095" lon="0.95225">
        <ele>109.25</ele>
        <time>2021-07-29T10:25:55Z</time>
      </trkpt>
      <trkpt lat="47.39092" lon="0.9523">
        <ele>110.21</ele>
        <time>2021-07-29T10:26:11Z</time>
      </trkpt>
      <trkpt lat="47.39095" lon="0.95239">
        <ele>109.73</ele>
        <time>2021-07-29T10:26:45Z</time>
      </trkpt>
      <trkpt lat="47.39097" lon="0.95228">
        <ele>109.73</ele>
        <time>2021-07-29T10:27:09Z</time>
      </trkpt>
      <trkpt lat="47.39108" lon="0.95229">
        <ele>109.73</ele>
        <time>2021-07-29T10:27:26Z</time>
      </trkpt>
      <trkpt lat="47.39108" lon="0.95239">
        <ele>109.73</ele>
        <time>2021-07-29T10:27:46Z</time>
      </trkpt>
      <trkpt lat="47.39113" lon="0.95231">
        <ele>110.21</ele>
        <time>2021-07-29T10:28:08Z</time>
      </trkpt>
      <trkpt lat="47.39111" lon="0.95221">
        <ele>110.21</ele>
        <time>2021-07-29T10:28:42Z</time>
      </trkpt>
      <trkpt lat="47.3912" lon="0.95233">
        <ele>110.21</ele>
        <time>2021-07-29T10:29:16Z</time>
      </trkpt>
      <trkpt lat="47.39111" lon="0.95237">
        <ele>110.69</ele>
        <time>2021-07-29T10:29:41Z</time>
      </trkpt>
      <trkpt lat="47.39118" lon="0.95233">
        <ele>110.69</ele>
        <time>2021-07-29T10:30:04Z</time>
      </trkpt>
      <trkpt lat="47.39136" lon="0.95237">
        <ele>111.17</ele>
        <time>2021-07-29T10:30:26Z</time>
      </trkpt>
      <trkpt lat="47.39146" lon="0.95229">
        <ele>111.65</ele>
        <time>2021-07-29T10:30:41Z</time>
      </trkpt>
      <trkpt lat="47.39151" lon="0.95216">
        <ele>110.69</ele>
        <time>2021-07-29T10:31:03Z</time>
      </trkpt>
      <trkpt lat="47.39151" lon="0.95214">
        <ele>110.69</ele>
        <time>2021-07-29T10:31:04Z</time>
      </trkpt>
      <trkpt lat="47.39155" lon="0.95195">
        <ele>110.69</ele>
        <time>2021-07-29T10:31:20Z</time>
      </trkpt>
      <trkpt lat="47.39166" lon="0.95173">
        <ele>110.69</ele>
        <time>2021-07-29T10:31:37Z</time>
      </trkpt>
      <trkpt lat="47.39175" lon="0.95156">
        <ele>110.21</ele>
        <time>2021-07-29T10:31:52Z</time>
      </trkpt>
      <trkpt lat="47.39184" lon="0.95139">
        <ele>109.73</ele>
        <time>2021-07-29T10:32:08Z</time>
      </trkpt>
      <trkpt lat="47.39195" lon="0.95117">
        <ele>109.25</ele>
        <time>2021-07-29T10:32:25Z</time>
      </trkpt>
      <trkpt lat="47.39202" lon="0.95101">
        <ele>109.25</ele>
        <time>2021-07-29T10:32:39Z</time>
      </trkpt>
      <trkpt lat="47.39217" lon="0.95079">
        <ele>108.77</ele>
        <time>2021-07-29T10:32:57Z</time>
      </trkpt>
      <trkpt lat="47.39224" lon="0.95056">
        <ele>108.77</ele>
        <time>2021-07-29T10:33:15Z</time>
      </trkpt>
      <trkpt lat="47.39234" lon="0.95033">
        <ele>108.77</ele>
        <time>2021-07-29T10:33:34Z</time>
      </trkpt>
      <trkpt lat="47.39245" lon="0.95012">
        <ele>108.77</ele>
        <time>2021-07-29T10:33:53Z</time>
      </trkpt>
      <trkpt lat="47.39257" lon="0.94994">
        <ele>108.29</ele>
        <time>2021-07-29T10:34:08Z</time>
      </trkpt>
      <trkpt lat="47.39259" lon="0.94992">
        <ele>108.77</ele>
        <time>2021-07-29T10:34:10Z</time>
      </trkpt>
      <trkpt lat="47.39269" lon="0.94968">
        <ele>107.81</ele>
        <time>2021-07-29T10:34:29Z</time>
      </trkpt>
      <trkpt lat="47.39278" lon="0.94947">
        <ele>107.81</ele>
        <time>2021-07-29T10:34:47Z</time>
      </trkpt>
      <trkpt lat="47.39284" lon="0.94939">
        <ele>108.29</ele>
        <time>2021-07-29T10:34:54Z</time>
      </trkpt>
      <trkpt lat="47.39294" lon="0.94919">
        <ele>107.32</ele>
        <time>2021-07-29T10:35:11Z</time>
      </trkpt>
      <trkpt lat="47.39302" lon="0.94907">
        <ele>107.32</ele>
        <time>2021-07-29T10:35:31Z</time>
      </trkpt>
      <trkpt lat="47.3931" lon="0.9489">
        <ele>106.84</ele>
        <time>2021-07-29T10:35:46Z</time>
      </trkpt>
      <trkpt lat="47.39319" lon="0.9487">
        <ele>106.36</ele>
        <time>2021-07-29T10:36:04Z</time>
      </trkpt>
      <trkpt lat="47.39332" lon="0.94846">
        <ele>106.36</ele>
        <time>2021-07-29T10:36:23Z</time>
      </trkpt>
      <trkpt lat="47.39348" lon="0.94818">
        <ele>106.36</ele>
        <time>2021-07-29T10:36:42Z</time>
      </trkpt>
      <trkpt lat="47.39355" lon="0.94806">
        <ele>105.88</ele>
        <time>2021-07-29T10:36:54Z</time>
      </trkpt>
      <trkpt lat="47.39362" lon="0.94795">
        <ele>104.92</ele>
        <time>2021-07-29T10:37:14Z</time>
      </trkpt>
      <trkpt lat="47.39375" lon="0.94771">
        <ele>104.92</ele>
        <time>2021-07-29T10:37:31Z</time>
      </trkpt>
      <trkpt lat="47.39377" lon="0.9476">
        <ele>104.92</ele>
        <time>2021-07-29T10:37:39Z</time>
      </trkpt>
      <trkpt lat="47.39375" lon="0.94761">
        <ele>104.92</ele>
        <time>2021-07-29T10:37:53Z</time>
      </trkpt>
      <trkpt lat="47.39377" lon="0.94766">
        <ele>104.92</ele>
        <time>2021-07-29T10:38:08Z</time>
      </trkpt>
      <trkpt lat="47.39376" lon="0.94758">
        <ele>103.96</ele>
        <time>2021-07-29T10:38:27Z</time>
      </trkpt>
      <trkpt lat="47.39374" lon="0.94758">
        <ele>103.96</ele>
        <time>2021-07-29T10:38:41Z</time>
      </trkpt>
      <trkpt lat="47.39375" lon="0.94759">
        <ele>103.96</ele>
        <time>2021-07-29T10:39:11Z</time>
      </trkpt>
      <trkpt lat="47.39375" lon="0.94759">
        <ele>104.44</ele>
        <time>2021-07-29T10:39:32Z</time>
      </trkpt>
      <trkpt lat="47.39375" lon="0.94759">
        <ele>103.96</ele>
        <time>2021-07-29T10:40:14Z</time>
      </trkpt>
      <trkpt lat="47.39372" lon="0.94762">
        <ele>103.96</ele>
        <time>2021-07-29T10:40:52Z</time>
      </trkpt>
      <trkpt lat="47.39373" lon="0.94759">
        <ele>104.44</ele>
        <time>2021-07-29T10:41:20Z</time>
      </trkpt>
      <trkpt lat="47.39373" lon="0.94754">
        <ele>104.44</ele>
        <time>2021-07-29T10:41:53Z</time>
      </trkpt>
      <trkpt lat="47.39373" lon="0.94757">
        <ele>104.44</ele>
        <time>2021-07-29T10:42:23Z</time>
      </trkpt>
      <trkpt lat="47.39374" lon="0.94756">
        <ele>104.92</ele>
        <time>2021-07-29T10:42:56Z</time>
      </trkpt>
      <trkpt lat="47.39374" lon="0.94756">
        <ele>104.92</ele>
        <time>2021-07-29T10:43:25Z</time>
      </trkpt>
      <trkpt lat="47.39375" lon="0.94758">
        <ele>104.92</ele>
        <time>2021-07-29T10:43:56Z</time>
      </trkpt>
      <trkpt lat="47.39372" lon="0.94758">
        <ele>104.92</ele>
        <time>2021-07-29T10:44:33Z</time>
      </trkpt>
      <trkpt lat="47.39371" lon="0.94756">
        <ele>104.92</ele>
        <time>2021-07-29T10:44:58Z</time>
      </trkpt>
      <trkpt lat="47.39372" lon="0.94756">
        <ele>104.92</ele>
        <time>2021-07-29T10:45:28Z</time>
      </trkpt>
      <trkpt lat="47.39372" lon="0.94756">
        <ele>104.92</ele>
        <time>2021-07-29T10:45:58Z</time>
      </trkpt>
      <trkpt lat="47.39372" lon="0.94756">
        <ele>104.92</ele>
        <time>2021-07-29T10:46:27Z</time>
      </trkpt>
      <trkpt lat="47.39372" lon="0.94754">
        <ele>105.4</ele>
        <time>2021-07-29T10:46:59Z</time>
      </trkpt>
      <trkpt lat="47.39371" lon="0.94755">
        <ele>105.88</ele>
        <time>2021-07-29T10:47:27Z</time>
      </trkpt>
      <trkpt lat="47.3937" lon="0.94753">
        <ele>105.4</ele>
        <time>2021-07-29T10:47:51Z</time>
      </trkpt>
      <trkpt lat="47.39368" lon="0.94754">
        <ele>105.88</ele>
        <time>2021-07-29T10:48:14Z</time>
      </trkpt>
      <trkpt lat="47.39369" lon="0.94757">
        <ele>106.36</ele>
        <time>2021-07-29T10:48:45Z</time>
      </trkpt>
      <trkpt lat="47.3937" lon="0.94754">
        <ele>106.36</ele>
        <time>2021-07-29T10:49:17Z</time>
      </trkpt>
      <trkpt lat="47.3937" lon="0.94753">
        <ele>106.36</ele>
        <time>2021-07-29T10:49:47Z</time>
      </trkpt>
      <trkpt lat="47.39369" lon="0.94754">
        <ele>106.84</ele>
        <time>2021-07-29T10:50:24Z</time>
      </trkpt>
      <trkpt lat="47.39369" lon="0.94753">
        <ele>106.84</ele>
        <time>2021-07-29T10:50:55Z</time>
      </trkpt>
      <trkpt lat="47.39366" lon="0.94752">
        <ele>106.84</ele>
        <time>2021-07-29T10:51:24Z</time>
      </trkpt>
      <trkpt lat="47.39365" lon="0.94753">
        <ele>106.84</ele>
        <time>2021-07-29T10:51:56Z</time>
      </trkpt>
      <trkpt lat="47.39363" lon="0.94752">
        <ele>106.84</ele>
        <time>2021-07-29T10:52:35Z</time>
      </trkpt>
      <trkpt lat="47.39364" lon="0.94749">
        <ele>107.81</ele>
        <time>2021-07-29T10:53:07Z</time>
      </trkpt>
      <trkpt lat="47.39374" lon="0.94757">
        <ele>107.81</ele>
        <time>2021-07-29T10:53:35Z</time>
      </trkpt>
      <trkpt lat="47.39374" lon="0.94758">
        <ele>107.81</ele>
        <time>2021-07-29T10:54:01Z</time>
      </trkpt>
      <trkpt lat="47.39375" lon="0.94757">
        <ele>108.29</ele>
        <time>2021-07-29T10:54:26Z</time>
      </trkpt>
      <trkpt lat="47.39372" lon="0.94757">
        <ele>107.81</ele>
        <time>2021-07-29T10:55:02Z</time>
      </trkpt>
      <trkpt lat="47.39372" lon="0.94756">
        <ele>107.81</ele>
        <time>2021-07-29T10:55:40Z</time>
      </trkpt>
      <trkpt lat="47.39373" lon="0.94757">
        <ele>107.81</ele>
        <time>2021-07-29T10:56:22Z</time>
      </trkpt>
      <trkpt lat="47.39375" lon="0.94756">
        <ele>108.29</ele>
        <time>2021-07-29T10:57:08Z</time>
      </trkpt>
      <trkpt lat="47.39376" lon="0.94758">
        <ele>107.32</ele>
        <time>2021-07-29T10:57:59Z</time>
      </trkpt>
      <trkpt lat="47.39376" lon="0.94757">
        <ele>108.29</ele>
        <time>2021-07-29T10:58:45Z</time>
      </trkpt>
      <trkpt lat="47.39376" lon="0.94757">
        <ele>108.29</ele>
        <time>2021-07-29T10:59:37Z</time>
      </trkpt>
      <trkpt lat="47.39373" lon="0.94759">
        <ele>107.81</ele>
        <time>2021-07-29T11:00:19Z</time>
      </trkpt>
      <trkpt lat="47.39374" lon="0.94759">
        <ele>108.29</ele>
        <time>2021-07-29T11:00:54Z</time>
      </trkpt>
      <trkpt lat="47.39375" lon="0.94758">
        <ele>108.77</ele>
        <time>2021-07-29T11:01:15Z</time>
      </trkpt>
      <trkpt lat="47.39375" lon="0.94757">
        <ele>109.25</ele>
        <time>2021-07-29T11:01:48Z</time>
      </trkpt>
      <trkpt lat="47.39376" lon="0.94757">
        <ele>108.29</ele>
        <time>2021-07-29T11:02:18Z</time>
      </trkpt>
      <trkpt lat="47.39376" lon="0.94755">
        <ele>107.81</ele>
        <time>2021-07-29T11:03:00Z</time>
      </trkpt>
      <trkpt lat="47.39376" lon="0.94758">
        <ele>107.81</ele>
        <time>2021-07-29T11:03:40Z</time>
      </trkpt>
      <trkpt lat="47.39379" lon="0.94759">
        <ele>107.81</ele>
        <time>2021-07-29T11:04:06Z</time>
      </trkpt>
      <trkpt lat="47.39382" lon="0.94758">
        <ele>108.29</ele>
        <time>2021-07-29T11:04:37Z</time>
      </trkpt>
      <trkpt lat="47.39383" lon="0.94759">
        <ele>107.81</ele>
        <time>2021-07-29T11:05:06Z</time>
      </trkpt>
      <trkpt lat="47.39377" lon="0.94757">
        <ele>108.77</ele>
        <time>2021-07-29T11:05:39Z</time>
      </trkpt>
      <trkpt lat="47.39376" lon="0.94758">
        <ele>108.77</ele>
        <time>2021-07-29T11:06:13Z</time>
      </trkpt>
      <trkpt lat="47.39376" lon="0.94757">
        <ele>109.25</ele>
        <time>2021-07-29T11:06:46Z</time>
      </trkpt>
      <trkpt lat="47.39373" lon="0.94761">
        <ele>109.25</ele>
        <time>2021-07-29T11:07:13Z</time>
      </trkpt>
      <trkpt lat="47.39379" lon="0.94759">
        <ele>108.77</ele>
        <time>2021-07-29T11:07:40Z</time>
      </trkpt>
      <trkpt lat="47.39374" lon="0.94761">
        <ele>109.73</ele>
        <time>2021-07-29T11:07:58Z</time>
      </trkpt>
      <trkpt lat="47.39376" lon="0.9476">
        <ele>108.77</ele>
        <time>2021-07-29T11:08:15Z</time>
      </trkpt>
      <trkpt lat="47.39373" lon="0.9476">
        <ele>108.77</ele>
        <time>2021-07-29T11:08:33Z</time>
      </trkpt>
      <trkpt lat="47.39378" lon="0.94762">
        <ele>109.25</ele>
        <time>2021-07-29T11:09:01Z</time>
      </trkpt>
      <trkpt lat="47.39384" lon="0.94753">
        <ele>108.77</ele>
        <time>2021-07-29T11:09:17Z</time>
      </trkpt>
      <trkpt lat="47.39388" lon="0.94749">
        <ele>108.29</ele>
        <time>2021-07-29T11:09:22Z</time>
      </trkpt>
      <trkpt lat="47.39398" lon="0.94732">
        <ele>107.32</ele>
        <time>2021-07-29T11:09:38Z</time>
      </trkpt>
      <trkpt lat="47.39408" lon="0.94713">
        <ele>106.84</ele>
        <time>2021-07-29T11:09:55Z</time>
      </trkpt>
      <trkpt lat="47.39418" lon="0.94695">
        <ele>105.4</ele>
        <time>2021-07-29T11:10:11Z</time>
      </trkpt>
      <trkpt lat="47.3943" lon="0.94672">
        <ele>103.96</ele>
        <time>2021-07-29T11:10:29Z</time>
      </trkpt>
      <trkpt lat="47.39437" lon="0.94663">
        <ele>103</ele>
        <time>2021-07-29T11:10:43Z</time>
      </trkpt>
      <trkpt lat="47.39446" lon="0.94643">
        <ele>102.04</ele>
        <time>2021-07-29T11:10:59Z</time>
      </trkpt>
      <trkpt lat="47.39459" lon="0.94618">
        <ele>100.6</ele>
        <time>2021-07-29T11:11:20Z</time>
      </trkpt>
      <trkpt lat="47.39461" lon="0.94606">
        <ele>100.11</ele>
        <time>2021-07-29T11:11:34Z</time>
      </trkpt>
      <trkpt lat="47.3946" lon="0.94603">
        <ele>99.63</ele>
        <time>2021-07-29T11:11:58Z</time>
      </trkpt>
      <trkpt lat="47.39459" lon="0.94604">
        <ele>100.11</ele>
        <time>2021-07-29T11:12:16Z</time>
      </trkpt>
      <trkpt lat="47.39462" lon="0.94603">
        <ele>100.6</ele>
        <time>2021-07-29T11:12:48Z</time>
      </trkpt>
      <trkpt lat="47.39461" lon="0.94603">
        <ele>100.6</ele>
        <time>2021-07-29T11:13:15Z</time>
      </trkpt>
      <trkpt lat="47.39467" lon="0.946">
        <ele>100.11</ele>
        <time>2021-07-29T11:13:28Z</time>
      </trkpt>
      <trkpt lat="47.39481" lon="0.94578">
        <ele>99.15</ele>
        <time>2021-07-29T11:13:47Z</time>
      </trkpt>
      <trkpt lat="47.39493" lon="0.94555">
        <ele>97.71</ele>
        <time>2021-07-29T11:14:05Z</time>
      </trkpt>
      <trkpt lat="47.39506" lon="0.9453">
        <ele>97.23</ele>
        <time>2021-07-29T11:14:24Z</time>
      </trkpt>
      <trkpt lat="47.39518" lon="0.94508">
        <ele>96.27</ele>
        <time>2021-07-29T11:14:41Z</time>
      </trkpt>
      <trkpt lat="47.3952" lon="0.94503">
        <ele>95.79</ele>
        <time>2021-07-29T11:14:45Z</time>
      </trkpt>
      <trkpt lat="47.39532" lon="0.94485">
        <ele>95.79</ele>
        <time>2021-07-29T11:15:02Z</time>
      </trkpt>
      <trkpt lat="47.39542" lon="0.94466">
        <ele>94.83</ele>
        <time>2021-07-29T11:15:19Z</time>
      </trkpt>
      <trkpt lat="47.39552" lon="0.94443">
        <ele>94.83</ele>
        <time>2021-07-29T11:15:37Z</time>
      </trkpt>
      <trkpt lat="47.39559" lon="0.9443">
        <ele>93.87</ele>
        <time>2021-07-29T11:15:48Z</time>
      </trkpt>
      <trkpt lat="47.39556" lon="0.94433">
        <ele>94.35</ele>
        <time>2021-07-29T11:16:00Z</time>
      </trkpt>
      <trkpt lat="47.39557" lon="0.9443">
        <ele>93.87</ele>
        <time>2021-07-29T11:16:20Z</time>
      </trkpt>
      <trkpt lat="47.3956" lon="0.94424">
        <ele>94.35</ele>
        <time>2021-07-29T11:16:33Z</time>
      </trkpt>
      <trkpt lat="47.39562" lon="0.94422">
        <ele>94.35</ele>
        <time>2021-07-29T11:16:35Z</time>
      </trkpt>
      <trkpt lat="47.39573" lon="0.94402">
        <ele>93.87</ele>
        <time>2021-07-29T11:16:52Z</time>
      </trkpt>
      <trkpt lat="47.39586" lon="0.94378">
        <ele>93.87</ele>
        <time>2021-07-29T11:17:12Z</time>
      </trkpt>
      <trkpt lat="47.39598" lon="0.94357">
        <ele>93.39</ele>
        <time>2021-07-29T11:17:31Z</time>
      </trkpt>
      <trkpt lat="47.39607" lon="0.94337">
        <ele>93.39</ele>
        <time>2021-07-29T11:17:46Z</time>
      </trkpt>
      <trkpt lat="47.39619" lon="0.94315">
        <ele>92.9</ele>
        <time>2021-07-29T11:18:06Z</time>
      </trkpt>
      <trkpt lat="47.39629" lon="0.94296">
        <ele>92.9</ele>
        <time>2021-07-29T11:18:23Z</time>
      </trkpt>
      <trkpt lat="47.39638" lon="0.94281">
        <ele>92.9</ele>
        <time>2021-07-29T11:18:38Z</time>
      </trkpt>
      <trkpt lat="47.39653" lon="0.94258">
        <ele>92.42</ele>
        <time>2021-07-29T11:18:56Z</time>
      </trkpt>
      <trkpt lat="47.39665" lon="0.94232">
        <ele>92.9</ele>
        <time>2021-07-29T11:19:17Z</time>
      </trkpt>
      <trkpt lat="47.39674" lon="0.94211">
        <ele>92.9</ele>
        <time>2021-07-29T11:19:33Z</time>
      </trkpt>
      <trkpt lat="47.39686" lon="0.94189">
        <ele>92.9</ele>
        <time>2021-07-29T11:19:52Z</time>
      </trkpt>
      <trkpt lat="47.39699" lon="0.94167">
        <ele>92.42</ele>
        <time>2021-07-29T11:20:10Z</time>
      </trkpt>
      <trkpt lat="47.397" lon="0.94154">
        <ele>91.94</ele>
        <time>2021-07-29T11:20:19Z</time>
      </trkpt>
      <trkpt lat="47.3969" lon="0.94133">
        <ele>91.46</ele>
        <time>2021-07-29T11:20:36Z</time>
      </trkpt>
      <trkpt lat="47.39683" lon="0.94116">
        <ele>90.5</ele>
        <time>2021-07-29T11:20:52Z</time>
      </trkpt>
      <trkpt lat="47.3968" lon="0.94096">
        <ele>89.54</ele>
        <time>2021-07-29T11:21:06Z</time>
      </trkpt>
      <trkpt lat="47.39678" lon="0.94075">
        <ele>88.58</ele>
        <time>2021-07-29T11:21:21Z</time>
      </trkpt>
      <trkpt lat="47.39677" lon="0.94051">
        <ele>87.14</ele>
        <time>2021-07-29T11:21:37Z</time>
      </trkpt>
      <trkpt lat="47.39681" lon="0.94032">
        <ele>85.69</ele>
        <time>2021-07-29T11:21:53Z</time>
      </trkpt>
      <trkpt lat="47.39673" lon="0.94005">
        <ele>84.25</ele>
        <time>2021-07-29T11:22:07Z</time>
      </trkpt>
      <trkpt lat="47.39675" lon="0.93989">
        <ele>83.77</ele>
        <time>2021-07-29T11:22:21Z</time>
      </trkpt>
      <trkpt lat="47.39669" lon="0.93969">
        <ele>82.81</ele>
        <time>2021-07-29T11:22:38Z</time>
      </trkpt>
      <trkpt lat="47.39657" lon="0.93947">
        <ele>80.89</ele>
        <time>2021-07-29T11:22:54Z</time>
      </trkpt>
      <trkpt lat="47.3965" lon="0.93942">
        <ele>80.41</ele>
        <time>2021-07-29T11:23:09Z</time>
      </trkpt>
      <trkpt lat="47.39654" lon="0.93929">
        <ele>79.93</ele>
        <time>2021-07-29T11:23:39Z</time>
      </trkpt>
      <trkpt lat="47.39667" lon="0.93925">
        <ele>80.41</ele>
        <time>2021-07-29T11:23:56Z</time>
      </trkpt>
      <trkpt lat="47.39676" lon="0.93919">
        <ele>80.89</ele>
        <time>2021-07-29T11:24:13Z</time>
      </trkpt>
      <trkpt lat="47.39683" lon="0.93915">
        <ele>81.37</ele>
        <time>2021-07-29T11:24:34Z</time>
      </trkpt>
      <trkpt lat="47.397" lon="0.93903">
        <ele>81.85</ele>
        <time>2021-07-29T11:24:52Z</time>
      </trkpt>
      <trkpt lat="47.39715" lon="0.93883">
        <ele>80.41</ele>
        <time>2021-07-29T11:25:13Z</time>
      </trkpt>
      <trkpt lat="47.3972" lon="0.93875">
        <ele>79.45</ele>
        <time>2021-07-29T11:25:40Z</time>
      </trkpt>
      <trkpt lat="47.39723" lon="0.9387">
        <ele>78.97</ele>
        <time>2021-07-29T11:25:56Z</time>
      </trkpt>
      <trkpt lat="47.39725" lon="0.9387">
        <ele>79.45</ele>
        <time>2021-07-29T11:26:23Z</time>
      </trkpt>
      <trkpt lat="47.39728" lon="0.93865">
        <ele>79.45</ele>
        <time>2021-07-29T11:26:40Z</time>
      </trkpt>
      <trkpt lat="47.3973" lon="0.93862">
        <ele>78.97</ele>
        <time>2021-07-29T11:26:43Z</time>
      </trkpt>
      <trkpt lat="47.39742" lon="0.93837">
        <ele>77.04</ele>
        <time>2021-07-29T11:27:01Z</time>
      </trkpt>
      <trkpt lat="47.39756" lon="0.9383">
        <ele>76.08</ele>
        <time>2021-07-29T11:27:19Z</time>
      </trkpt>
      <trkpt lat="47.39764" lon="0.93829">
        <ele>76.08</ele>
        <time>2021-07-29T11:27:34Z</time>
      </trkpt>
      <trkpt lat="47.39782" lon="0.93824">
        <ele>75.6</ele>
        <time>2021-07-29T11:27:49Z</time>
      </trkpt>
      <trkpt lat="47.3979" lon="0.9382">
        <ele>76.08</ele>
        <time>2021-07-29T11:28:05Z</time>
      </trkpt>
      <trkpt lat="47.39797" lon="0.93819">
        <ele>76.08</ele>
        <time>2021-07-29T11:28:23Z</time>
      </trkpt>
      <trkpt lat="47.39811" lon="0.93809">
        <ele>76.56</ele>
        <time>2021-07-29T11:28:42Z</time>
      </trkpt>
      <trkpt lat="47.39811" lon="0.93812">
        <ele>76.08</ele>
        <time>2021-07-29T11:29:01Z</time>
      </trkpt>
      <trkpt lat="47.39815" lon="0.93807">
        <ele>76.56</ele>
        <time>2021-07-29T11:29:22Z</time>
      </trkpt>
      <trkpt lat="47.39823" lon="0.93804">
        <ele>78</ele>
        <time>2021-07-29T11:29:40Z</time>
      </trkpt>
      <trkpt lat="47.39828" lon="0.9379">
        <ele>78</ele>
        <time>2021-07-29T11:29:53Z</time>
      </trkpt>
      <trkpt lat="47.39836" lon="0.93768">
        <ele>77.52</ele>
        <time>2021-07-29T11:30:09Z</time>
      </trkpt>
      <trkpt lat="47.39843" lon="0.93742">
        <ele>77.04</ele>
        <time>2021-07-29T11:30:26Z</time>
      </trkpt>
      <trkpt lat="47.39849" lon="0.93718">
        <ele>76.56</ele>
        <time>2021-07-29T11:30:43Z</time>
      </trkpt>
      <trkpt lat="47.39846" lon="0.93692">
        <ele>76.08</ele>
        <time>2021-07-29T11:30:58Z</time>
      </trkpt>
      <trkpt lat="47.39839" lon="0.9367">
        <ele>74.64</ele>
        <time>2021-07-29T11:31:14Z</time>
      </trkpt>
      <trkpt lat="47.39834" lon="0.93656">
        <ele>74.64</ele>
        <time>2021-07-29T11:31:24Z</time>
      </trkpt>
      <trkpt lat="47.39824" lon="0.93624">
        <ele>73.68</ele>
        <time>2021-07-29T11:31:42Z</time>
      </trkpt>
      <trkpt lat="47.39818" lon="0.93603">
        <ele>72.72</ele>
        <time>2021-07-29T11:31:59Z</time>
      </trkpt>
      <trkpt lat="47.39818" lon="0.9358">
        <ele>71.27</ele>
        <time>2021-07-29T11:32:16Z</time>
      </trkpt>
      <trkpt lat="47.3981" lon="0.93552">
        <ele>70.31</ele>
        <time>2021-07-29T11:32:32Z</time>
      </trkpt>
      <trkpt lat="47.39808" lon="0.93524">
        <ele>70.31</ele>
        <time>2021-07-29T11:32:49Z</time>
      </trkpt>
      <trkpt lat="47.3981" lon="0.935">
        <ele>70.31</ele>
        <time>2021-07-29T11:33:07Z</time>
      </trkpt>
      <trkpt lat="47.39817" lon="0.93478">
        <ele>70.31</ele>
        <time>2021-07-29T11:33:23Z</time>
      </trkpt>
      <trkpt lat="47.39822" lon="0.93464">
        <ele>70.31</ele>
        <time>2021-07-29T11:33:38Z</time>
      </trkpt>
      <trkpt lat="47.39834" lon="0.93449">
        <ele>70.79</ele>
        <time>2021-07-29T11:33:55Z</time>
      </trkpt>
      <trkpt lat="47.39845" lon="0.93429">
        <ele>72.24</ele>
        <time>2021-07-29T11:34:11Z</time>
      </trkpt>
      <trkpt lat="47.39856" lon="0.93407">
        <ele>73.2</ele>
        <time>2021-07-29T11:34:29Z</time>
      </trkpt>
      <trkpt lat="47.39864" lon="0.934">
        <ele>72.72</ele>
        <time>2021-07-29T11:34:49Z</time>
      </trkpt>
      <trkpt lat="47.39867" lon="0.93399">
        <ele>73.2</ele>
        <time>2021-07-29T11:35:15Z</time>
      </trkpt>
      <trkpt lat="47.39869" lon="0.9338">
        <ele>71.27</ele>
        <time>2021-07-29T11:35:29Z</time>
      </trkpt>
      <trkpt lat="47.39876" lon="0.93355">
        <ele>69.83</ele>
        <time>2021-07-29T11:35:47Z</time>
      </trkpt>
      <trkpt lat="47.39882" lon="0.93333">
        <ele>67.91</ele>
        <time>2021-07-29T11:36:04Z</time>
      </trkpt>
      <trkpt lat="47.39888" lon="0.93313">
        <ele>65.99</ele>
        <time>2021-07-29T11:36:23Z</time>
      </trkpt>
      <trkpt lat="47.39891" lon="0.933">
        <ele>63.58</ele>
        <time>2021-07-29T11:36:37Z</time>
      </trkpt>
      <trkpt lat="47.399" lon="0.93279">
        <ele>60.22</ele>
        <time>2021-07-29T11:36:56Z</time>
      </trkpt>
      <trkpt lat="47.39913" lon="0.93247">
        <ele>58.3</ele>
        <time>2021-07-29T11:37:15Z</time>
      </trkpt>
      <trkpt lat="47.3991" lon="0.93234">
        <ele>57.82</ele>
        <time>2021-07-29T11:37:28Z</time>
      </trkpt>
      <trkpt lat="47.39893" lon="0.93243">
        <ele>57.82</ele>
        <time>2021-07-29T11:37:47Z</time>
      </trkpt>
      <trkpt lat="47.39876" lon="0.93253">
        <ele>59.74</ele>
        <time>2021-07-29T11:38:03Z</time>
      </trkpt>
      <trkpt lat="47.39873" lon="0.93254">
        <ele>58.78</ele>
        <time>2021-07-29T11:38:05Z</time>
      </trkpt>
      <trkpt lat="47.39872" lon="0.93254">
        <ele>59.74</ele>
        <time>2021-07-29T11:38:07Z</time>
      </trkpt>
      <trkpt lat="47.39856" lon="0.93256">
        <ele>59.74</ele>
        <time>2021-07-29T11:38:23Z</time>
      </trkpt>
      <trkpt lat="47.39839" lon="0.9326">
        <ele>61.18</ele>
        <time>2021-07-29T11:38:39Z</time>
      </trkpt>
      <trkpt lat="47.39822" lon="0.93264">
        <ele>62.62</ele>
        <time>2021-07-29T11:38:56Z</time>
      </trkpt>
      <trkpt lat="47.3981" lon="0.93267">
        <ele>63.58</ele>
        <time>2021-07-29T11:39:11Z</time>
      </trkpt>
      <trkpt lat="47.39798" lon="0.93271">
        <ele>65.03</ele>
        <time>2021-07-29T11:39:24Z</time>
      </trkpt>
      <trkpt lat="47.39792" lon="0.93279">
        <ele>65.99</ele>
        <time>2021-07-29T11:39:36Z</time>
      </trkpt>
      <trkpt lat="47.39789" lon="0.93289">
        <ele>65.99</ele>
        <time>2021-07-29T11:39:43Z</time>
      </trkpt>
      <trkpt lat="47.39794" lon="0.93306">
        <ele>66.47</ele>
        <time>2021-07-29T11:39:56Z</time>
      </trkpt>
      <trkpt lat="47.39794" lon="0.93309">
        <ele>66.95</ele>
        <time>2021-07-29T11:39:58Z</time>
      </trkpt>
      <trkpt lat="47.39798" lon="0.93331">
        <ele>65.99</ele>
        <time>2021-07-29T11:40:14Z</time>
      </trkpt>
      <trkpt lat="47.39798" lon="0.93336">
        <ele>65.51</ele>
        <time>2021-07-29T11:40:32Z</time>
      </trkpt>
      <trkpt lat="47.39799" lon="0.93342">
        <ele>65.51</ele>
        <time>2021-07-29T11:40:45Z</time>
      </trkpt>
      <trkpt lat="47.39788" lon="0.93341">
        <ele>66.47</ele>
        <time>2021-07-29T11:41:01Z</time>
      </trkpt>
      <trkpt lat="47.39774" lon="0.93342">
        <ele>66.95</ele>
        <time>2021-07-29T11:41:16Z</time>
      </trkpt>
      <trkpt lat="47.3976" lon="0.93344">
        <ele>68.39</ele>
        <time>2021-07-29T11:41:31Z</time>
      </trkpt>
      <trkpt lat="47.39747" lon="0.93346">
        <ele>70.31</ele>
        <time>2021-07-29T11:41:46Z</time>
      </trkpt>
      <trkpt lat="47.39734" lon="0.93344">
        <ele>71.76</ele>
        <time>2021-07-29T11:42:00Z</time>
      </trkpt>
      <trkpt lat="47.39732" lon="0.93343">
        <ele>71.27</ele>
        <time>2021-07-29T11:42:02Z</time>
      </trkpt>
      <trkpt lat="47.39727" lon="0.93331">
        <ele>72.72</ele>
        <time>2021-07-29T11:42:12Z</time>
      </trkpt>
      <trkpt lat="47.39724" lon="0.93304">
        <ele>73.2</ele>
        <time>2021-07-29T11:42:31Z</time>
      </trkpt>
      <trkpt lat="47.3972" lon="0.93287">
        <ele>73.68</ele>
        <time>2021-07-29T11:42:47Z</time>
      </trkpt>
      <trkpt lat="47.39719" lon="0.93274">
        <ele>73.68</ele>
        <time>2021-07-29T11:43:03Z</time>
      </trkpt>
      <trkpt lat="47.3972" lon="0.93275">
        <ele>73.68</ele>
        <time>2021-07-29T11:43:26Z</time>
      </trkpt>
      <trkpt lat="47.39717" lon="0.93259">
        <ele>74.64</ele>
        <time>2021-07-29T11:43:38Z</time>
      </trkpt>
      <trkpt lat="47.39716" lon="0.93256">
        <ele>74.16</ele>
        <time>2021-07-29T11:43:40Z</time>
      </trkpt>
      <trkpt lat="47.39714" lon="0.93251">
        <ele>74.16</ele>
        <time>2021-07-29T11:43:44Z</time>
      </trkpt>
      <trkpt lat="47.39707" lon="0.93228">
        <ele>76.08</ele>
        <time>2021-07-29T11:44:01Z</time>
      </trkpt>
      <trkpt lat="47.397" lon="0.93205">
        <ele>77.04</ele>
        <time>2021-07-29T11:44:17Z</time>
      </trkpt>
      <trkpt lat="47.39695" lon="0.93189">
        <ele>78.48</ele>
        <time>2021-07-29T11:44:31Z</time>
      </trkpt>
      <trkpt lat="47.39684" lon="0.93178">
        <ele>80.41</ele>
        <time>2021-07-29T11:44:45Z</time>
      </trkpt>
      <trkpt lat="47.39672" lon="0.93175">
        <ele>81.85</ele>
        <time>2021-07-29T11:45:00Z</time>
      </trkpt>
      <trkpt lat="47.39657" lon="0.93178">
        <ele>83.29</ele>
        <time>2021-07-29T11:45:15Z</time>
      </trkpt>
      <trkpt lat="47.39642" lon="0.93181">
        <ele>84.73</ele>
        <time>2021-07-29T11:45:32Z</time>
      </trkpt>
      <trkpt lat="47.39628" lon="0.93178">
        <ele>84.25</ele>
        <time>2021-07-29T11:45:48Z</time>
      </trkpt>
      <trkpt lat="47.39628" lon="0.93154">
        <ele>83.77</ele>
        <time>2021-07-29T11:46:03Z</time>
      </trkpt>
      <trkpt lat="47.39627" lon="0.93142">
        <ele>84.25</ele>
        <time>2021-07-29T11:46:21Z</time>
      </trkpt>
      <trkpt lat="47.39629" lon="0.9313">
        <ele>82.81</ele>
        <time>2021-07-29T11:46:43Z</time>
      </trkpt>
      <trkpt lat="47.39629" lon="0.93124">
        <ele>82.81</ele>
        <time>2021-07-29T11:46:47Z</time>
      </trkpt>
      <trkpt lat="47.39636" lon="0.93092">
        <ele>81.37</ele>
        <time>2021-07-29T11:47:06Z</time>
      </trkpt>
      <trkpt lat="47.39643" lon="0.93072">
        <ele>80.89</ele>
        <time>2021-07-29T11:47:21Z</time>
      </trkpt>
      <trkpt lat="47.39646" lon="0.93067">
        <ele>80.41</ele>
        <time>2021-07-29T11:47:25Z</time>
      </trkpt>
      <trkpt lat="47.39656" lon="0.93042">
        <ele>79.45</ele>
        <time>2021-07-29T11:47:42Z</time>
      </trkpt>
      <trkpt lat="47.39667" lon="0.93018">
        <ele>79.45</ele>
        <time>2021-07-29T11:48:00Z</time>
      </trkpt>
      <trkpt lat="47.39682" lon="0.92999">
        <ele>79.45</ele>
        <time>2021-07-29T11:48:19Z</time>
      </trkpt>
      <trkpt lat="47.39698" lon="0.92981">
        <ele>78.48</ele>
        <time>2021-07-29T11:48:37Z</time>
      </trkpt>
      <trkpt lat="47.39704" lon="0.92974">
        <ele>78.48</ele>
        <time>2021-07-29T11:48:44Z</time>
      </trkpt>
      <trkpt lat="47.39721" lon="0.92955">
        <ele>78.48</ele>
        <time>2021-07-29T11:49:03Z</time>
      </trkpt>
      <trkpt lat="47.39729" lon="0.92936">
        <ele>79.45</ele>
        <time>2021-07-29T11:49:18Z</time>
      </trkpt>
      <trkpt lat="47.39727" lon="0.92929">
        <ele>80.41</ele>
        <time>2021-07-29T11:49:23Z</time>
      </trkpt>
      <trkpt lat="47.39726" lon="0.92903">
        <ele>81.85</ele>
        <time>2021-07-29T11:49:40Z</time>
      </trkpt>
      <trkpt lat="47.39723" lon="0.92874">
        <ele>82.33</ele>
        <time>2021-07-29T11:49:59Z</time>
      </trkpt>
      <trkpt lat="47.39719" lon="0.92841">
        <ele>83.29</ele>
        <time>2021-07-29T11:50:20Z</time>
      </trkpt>
      <trkpt lat="47.39716" lon="0.92815">
        <ele>83.77</ele>
        <time>2021-07-29T11:50:37Z</time>
      </trkpt>
      <trkpt lat="47.39717" lon="0.92788">
        <ele>83.77</ele>
        <time>2021-07-29T11:50:54Z</time>
      </trkpt>
      <trkpt lat="47.39717" lon="0.92772">
        <ele>83.77</ele>
        <time>2021-07-29T11:51:04Z</time>
      </trkpt>
      <trkpt lat="47.39715" lon="0.92746">
        <ele>83.77</ele>
        <time>2021-07-29T11:51:21Z</time>
      </trkpt>
      <trkpt lat="47.39714" lon="0.92721">
        <ele>83.77</ele>
        <time>2021-07-29T11:51:37Z</time>
      </trkpt>
      <trkpt lat="47.39713" lon="0.92695">
        <ele>83.29</ele>
        <time>2021-07-29T11:51:54Z</time>
      </trkpt>
      <trkpt lat="47.39712" lon="0.92672">
        <ele>82.33</ele>
        <time>2021-07-29T11:52:08Z</time>
      </trkpt>
      <trkpt lat="47.39711" lon="0.92645">
        <ele>82.33</ele>
        <time>2021-07-29T11:52:26Z</time>
      </trkpt>
      <trkpt lat="47.39715" lon="0.92629">
        <ele>82.33</ele>
        <time>2021-07-29T11:52:41Z</time>
      </trkpt>
      <trkpt lat="47.39715" lon="0.92626">
        <ele>81.85</ele>
        <time>2021-07-29T11:52:55Z</time>
      </trkpt>
      <trkpt lat="47.39728" lon="0.92624">
        <ele>81.37</ele>
        <time>2021-07-29T11:53:11Z</time>
      </trkpt>
      <trkpt lat="47.39738" lon="0.92622">
        <ele>80.89</ele>
        <time>2021-07-29T11:53:25Z</time>
      </trkpt>
      <trkpt lat="47.3975" lon="0.92619">
        <ele>80.41</ele>
        <time>2021-07-29T11:53:36Z</time>
      </trkpt>
      <trkpt lat="47.39765" lon="0.92612">
        <ele>79.45</ele>
        <time>2021-07-29T11:53:54Z</time>
      </trkpt>
      <trkpt lat="47.39767" lon="0.92612">
        <ele>79.45</ele>
        <time>2021-07-29T11:54:14Z</time>
      </trkpt>
      <trkpt lat="47.39776" lon="0.92605">
        <ele>78</ele>
        <time>2021-07-29T11:54:32Z</time>
      </trkpt>
      <trkpt lat="47.3979" lon="0.92598">
        <ele>76.08</ele>
        <time>2021-07-29T11:54:51Z</time>
      </trkpt>
      <trkpt lat="47.39797" lon="0.9259">
        <ele>73.68</ele>
        <time>2021-07-29T11:55:09Z</time>
      </trkpt>
      <trkpt lat="47.39803" lon="0.92584">
        <ele>71.27</ele>
        <time>2021-07-29T11:55:22Z</time>
      </trkpt>
      <trkpt lat="47.39807" lon="0.92583">
        <ele>70.31</ele>
        <time>2021-07-29T11:55:41Z</time>
      </trkpt>
      <trkpt lat="47.39806" lon="0.92576">
        <ele>69.83</ele>
        <time>2021-07-29T11:56:07Z</time>
      </trkpt>
      <trkpt lat="47.39809" lon="0.92582">
        <ele>70.31</ele>
        <time>2021-07-29T11:56:22Z</time>
      </trkpt>
      <trkpt lat="47.3981" lon="0.92579">
        <ele>70.31</ele>
        <time>2021-07-29T11:56:55Z</time>
      </trkpt>
      <trkpt lat="47.39814" lon="0.92574">
        <ele>68.87</ele>
        <time>2021-07-29T11:57:13Z</time>
      </trkpt>
      <trkpt lat="47.39823" lon="0.92576">
        <ele>68.39</ele>
        <time>2021-07-29T11:57:33Z</time>
      </trkpt>
      <trkpt lat="47.39825" lon="0.92572">
        <ele>67.91</ele>
        <time>2021-07-29T11:57:42Z</time>
      </trkpt>
      <trkpt lat="47.39833" lon="0.92558">
        <ele>65.03</ele>
        <time>2021-07-29T11:57:58Z</time>
      </trkpt>
      <trkpt lat="47.39837" lon="0.92552">
        <ele>62.14</ele>
        <time>2021-07-29T11:58:09Z</time>
      </trkpt>
      <trkpt lat="47.39841" lon="0.92539">
        <ele>60.22</ele>
        <time>2021-07-29T11:58:27Z</time>
      </trkpt>
      <trkpt lat="47.39833" lon="0.92538">
        <ele>59.74</ele>
        <time>2021-07-29T11:58:41Z</time>
      </trkpt>
      <trkpt lat="47.39828" lon="0.92538">
        <ele>59.74</ele>
        <time>2021-07-29T11:59:03Z</time>
      </trkpt>
      <trkpt lat="47.39828" lon="0.92534">
        <ele>58.78</ele>
        <time>2021-07-29T11:59:29Z</time>
      </trkpt>
      <trkpt lat="47.39828" lon="0.92536">
        <ele>59.26</ele>
        <time>2021-07-29T11:59:58Z</time>
      </trkpt>
      <trkpt lat="47.39825" lon="0.92523">
        <ele>59.74</ele>
        <time>2021-07-29T12:00:24Z</time>
      </trkpt>
      <trkpt lat="47.39826" lon="0.92528">
        <ele>60.22</ele>
        <time>2021-07-29T12:00:48Z</time>
      </trkpt>
      <trkpt lat="47.39828" lon="0.92528">
        <ele>60.7</ele>
        <time>2021-07-29T12:01:16Z</time>
      </trkpt>
      <trkpt lat="47.39838" lon="0.92534">
        <ele>60.22</ele>
        <time>2021-07-29T12:01:42Z</time>
      </trkpt>
      <trkpt lat="47.39839" lon="0.92534">
        <ele>60.22</ele>
        <time>2021-07-29T12:01:43Z</time>
      </trkpt>
      <trkpt lat="47.39839" lon="0.92509">
        <ele>60.22</ele>
        <time>2021-07-29T12:02:00Z</time>
      </trkpt>
      <trkpt lat="47.39839" lon="0.92491">
        <ele>60.22</ele>
        <time>2021-07-29T12:02:15Z</time>
      </trkpt>
      <trkpt lat="47.39851" lon="0.92489">
        <ele>60.7</ele>
        <time>2021-07-29T12:02:30Z</time>
      </trkpt>
      <trkpt lat="47.39852" lon="0.9252">
        <ele>61.18</ele>
        <time>2021-07-29T12:02:47Z</time>
      </trkpt>
      <trkpt lat="47.39855" lon="0.92524">
        <ele>60.22</ele>
        <time>2021-07-29T12:02:50Z</time>
      </trkpt>
      <trkpt lat="47.39875" lon="0.92516">
        <ele>57.82</ele>
        <time>2021-07-29T12:03:09Z</time>
      </trkpt>
      <trkpt lat="47.39881" lon="0.92512">
        <ele>57.82</ele>
        <time>2021-07-29T12:03:20Z</time>
      </trkpt>
      <trkpt lat="47.39892" lon="0.92522">
        <ele>56.86</ele>
        <time>2021-07-29T12:03:33Z</time>
      </trkpt>
      <trkpt lat="47.39894" lon="0.92526">
        <ele>56.86</ele>
        <time>2021-07-29T12:03:36Z</time>
      </trkpt>
      <trkpt lat="47.39897" lon="0.9255">
        <ele>56.86</ele>
        <time>2021-07-29T12:03:53Z</time>
      </trkpt>
      <trkpt lat="47.39899" lon="0.92576">
        <ele>56.86</ele>
        <time>2021-07-29T12:04:11Z</time>
      </trkpt>
      <trkpt lat="47.39902" lon="0.92599">
        <ele>56.86</ele>
        <time>2021-07-29T12:04:27Z</time>
      </trkpt>
      <trkpt lat="47.39906" lon="0.92625">
        <ele>56.37</ele>
        <time>2021-07-29T12:04:44Z</time>
      </trkpt>
      <trkpt lat="47.3991" lon="0.92651">
        <ele>56.86</ele>
        <time>2021-07-29T12:05:04Z</time>
      </trkpt>
      <trkpt lat="47.39916" lon="0.92677">
        <ele>57.34</ele>
        <time>2021-07-29T12:05:22Z</time>
      </trkpt>
      <trkpt lat="47.39913" lon="0.927">
        <ele>56.37</ele>
        <time>2021-07-29T12:05:38Z</time>
      </trkpt>
      <trkpt lat="47.39912" lon="0.92722">
        <ele>56.86</ele>
        <time>2021-07-29T12:05:53Z</time>
      </trkpt>
      <trkpt lat="47.39914" lon="0.92748">
        <ele>56.86</ele>
        <time>2021-07-29T12:06:09Z</time>
      </trkpt>
      <trkpt lat="47.39925" lon="0.92768">
        <ele>56.86</ele>
        <time>2021-07-29T12:06:26Z</time>
      </trkpt>
      <trkpt lat="47.3994" lon="0.92764">
        <ele>56.37</ele>
        <time>2021-07-29T12:06:42Z</time>
      </trkpt>
      <trkpt lat="47.39944" lon="0.92763">
        <ele>56.37</ele>
        <time>2021-07-29T12:07:02Z</time>
      </trkpt>
      <trkpt lat="47.39951" lon="0.92763">
        <ele>55.89</ele>
        <time>2021-07-29T12:07:18Z</time>
      </trkpt>
      <trkpt lat="47.3997" lon="0.92764">
        <ele>56.37</ele>
        <time>2021-07-29T12:07:35Z</time>
      </trkpt>
      <trkpt lat="47.39968" lon="0.92762">
        <ele>56.86</ele>
        <time>2021-07-29T12:07:49Z</time>
      </trkpt>
      <trkpt lat="47.39964" lon="0.92755">
        <ele>56.86</ele>
        <time>2021-07-29T12:08:21Z</time>
      </trkpt>
      <trkpt lat="47.39968" lon="0.92745">
        <ele>56.86</ele>
        <time>2021-07-29T12:08:52Z</time>
      </trkpt>
      <trkpt lat="47.39965" lon="0.92741">
        <ele>56.86</ele>
        <time>2021-07-29T12:09:28Z</time>
      </trkpt>
      <trkpt lat="47.39963" lon="0.92733">
        <ele>56.37</ele>
        <time>2021-07-29T12:10:02Z</time>
      </trkpt>
      <trkpt lat="47.39962" lon="0.92731">
        <ele>56.37</ele>
        <time>2021-07-29T12:10:35Z</time>
      </trkpt>
      <trkpt lat="47.39958" lon="0.92726">
        <ele>57.34</ele>
        <time>2021-07-29T12:11:05Z</time>
      </trkpt>
      <trkpt lat="47.39959" lon="0.92731">
        <ele>57.82</ele>
        <time>2021-07-29T12:11:27Z</time>
      </trkpt>
      <trkpt lat="47.39959" lon="0.92733">
        <ele>57.82</ele>
        <time>2021-07-29T12:12:00Z</time>
      </trkpt>
      <trkpt lat="47.39969" lon="0.92738">
        <ele>57.82</ele>
        <time>2021-07-29T12:12:23Z</time>
      </trkpt>
      <trkpt lat="47.39999" lon="0.92756">
        <ele>57.82</ele>
        <time>2021-07-29T12:12:39Z</time>
      </trkpt>
      <trkpt lat="47.40014" lon="0.92747">
        <ele>58.78</ele>
        <time>2021-07-29T12:12:57Z</time>
      </trkpt>
      <trkpt lat="47.40031" lon="0.92742">
        <ele>58.3</ele>
        <time>2021-07-29T12:13:12Z</time>
      </trkpt>
      <trkpt lat="47.40043" lon="0.92735">
        <ele>58.3</ele>
        <time>2021-07-29T12:13:27Z</time>
      </trkpt>
      <trkpt lat="47.4006" lon="0.92729">
        <ele>59.74</ele>
        <time>2021-07-29T12:13:46Z</time>
      </trkpt>
      <trkpt lat="47.40072" lon="0.92741">
        <ele>59.26</ele>
        <time>2021-07-29T12:14:02Z</time>
      </trkpt>
      <trkpt lat="47.40089" lon="0.92733">
        <ele>59.74</ele>
        <time>2021-07-29T12:14:21Z</time>
      </trkpt>
      <trkpt lat="47.40091" lon="0.92732">
        <ele>59.74</ele>
        <time>2021-07-29T12:14:39Z</time>
      </trkpt>
      <trkpt lat="47.40091" lon="0.92734">
        <ele>59.26</ele>
        <time>2021-07-29T12:14:53Z</time>
      </trkpt>
      <trkpt lat="47.40092" lon="0.92735">
        <ele>59.26</ele>
        <time>2021-07-29T12:15:11Z</time>
      </trkpt>
      <trkpt lat="47.40093" lon="0.92732">
        <ele>59.26</ele>
        <time>2021-07-29T12:15:32Z</time>
      </trkpt>
      <trkpt lat="47.40089" lon="0.92729">
        <ele>59.26</ele>
        <time>2021-07-29T12:15:50Z</time>
      </trkpt>
      <trkpt lat="47.40071" lon="0.92733">
        <ele>58.78</ele>
        <time>2021-07-29T12:16:09Z</time>
      </trkpt>
      <trkpt lat="47.4006" lon="0.92721">
        <ele>59.26</ele>
        <time>2021-07-29T12:16:25Z</time>
      </trkpt>
      <trkpt lat="47.40048" lon="0.9272">
        <ele>57.82</ele>
        <time>2021-07-29T12:16:40Z</time>
      </trkpt>
      <trkpt lat="47.40035" lon="0.92733">
        <ele>57.82</ele>
        <time>2021-07-29T12:16:57Z</time>
      </trkpt>
      <trkpt lat="47.40017" lon="0.92739">
        <ele>58.3</ele>
        <time>2021-07-29T12:17:17Z</time>
      </trkpt>
      <trkpt lat="47.40004" lon="0.92747">
        <ele>57.82</ele>
        <time>2021-07-29T12:17:34Z</time>
      </trkpt>
      <trkpt lat="47.39988" lon="0.92752">
        <ele>56.86</ele>
        <time>2021-07-29T12:17:50Z</time>
      </trkpt>
      <trkpt lat="47.39972" lon="0.92757">
        <ele>57.34</ele>
        <time>2021-07-29T12:18:08Z</time>
      </trkpt>
      <trkpt lat="47.39965" lon="0.92755">
        <ele>57.34</ele>
        <time>2021-07-29T12:18:23Z</time>
      </trkpt>
      <trkpt lat="47.39961" lon="0.92754">
        <ele>57.82</ele>
        <time>2021-07-29T12:18:29Z</time>
      </trkpt>
      <trkpt lat="47.39944" lon="0.92757">
        <ele>57.34</ele>
        <time>2021-07-29T12:18:45Z</time>
      </trkpt>
      <trkpt lat="47.39927" lon="0.92759">
        <ele>57.82</ele>
        <time>2021-07-29T12:19:02Z</time>
      </trkpt>
      <trkpt lat="47.39917" lon="0.92739">
        <ele>58.3</ele>
        <time>2021-07-29T12:19:19Z</time>
      </trkpt>
      <trkpt lat="47.39914" lon="0.92722">
        <ele>57.82</ele>
        <time>2021-07-29T12:19:38Z</time>
      </trkpt>
      <trkpt lat="47.39916" lon="0.92703">
        <ele>58.3</ele>
        <time>2021-07-29T12:19:53Z</time>
      </trkpt>
      <trkpt lat="47.39919" lon="0.92675">
        <ele>58.3</ele>
        <time>2021-07-29T12:20:10Z</time>
      </trkpt>
      <trkpt lat="47.39913" lon="0.92645">
        <ele>57.82</ele>
        <time>2021-07-29T12:20:29Z</time>
      </trkpt>
      <trkpt lat="47.3991" lon="0.92623">
        <ele>57.82</ele>
        <time>2021-07-29T12:20:46Z</time>
      </trkpt>
      <trkpt lat="47.39908" lon="0.926">
        <ele>57.82</ele>
        <time>2021-07-29T12:21:02Z</time>
      </trkpt>
      <trkpt lat="47.39903" lon="0.92578">
        <ele>58.3</ele>
        <time>2021-07-29T12:21:19Z</time>
      </trkpt>
      <trkpt lat="47.399" lon="0.92557">
        <ele>57.82</ele>
        <time>2021-07-29T12:21:35Z</time>
      </trkpt>
      <trkpt lat="47.39899" lon="0.92545">
        <ele>57.82</ele>
        <time>2021-07-29T12:21:43Z</time>
      </trkpt>
      <trkpt lat="47.39892" lon="0.92517">
        <ele>58.3</ele>
        <time>2021-07-29T12:22:03Z</time>
      </trkpt>
      <trkpt lat="47.39887" lon="0.92512">
        <ele>57.82</ele>
        <time>2021-07-29T12:22:09Z</time>
      </trkpt>
      <trkpt lat="47.39879" lon="0.9249">
        <ele>58.3</ele>
        <time>2021-07-29T12:22:26Z</time>
      </trkpt>
      <trkpt lat="47.39877" lon="0.9246">
        <ele>58.3</ele>
        <time>2021-07-29T12:22:44Z</time>
      </trkpt>
      <trkpt lat="47.39875" lon="0.92434">
        <ele>58.3</ele>
        <time>2021-07-29T12:23:00Z</time>
      </trkpt>
      <trkpt lat="47.39872" lon="0.92411">
        <ele>58.78</ele>
        <time>2021-07-29T12:23:16Z</time>
      </trkpt>
      <trkpt lat="47.39871" lon="0.92409">
        <ele>58.3</ele>
        <time>2021-07-29T12:23:39Z</time>
      </trkpt>
      <trkpt lat="47.39875" lon="0.92416">
        <ele>58.3</ele>
        <time>2021-07-29T12:24:08Z</time>
      </trkpt>
      <trkpt lat="47.39877" lon="0.92415">
        <ele>58.3</ele>
        <time>2021-07-29T12:24:37Z</time>
      </trkpt>
      <trkpt lat="47.39872" lon="0.92421">
        <ele>57.82</ele>
        <time>2021-07-29T12:24:56Z</time>
      </trkpt>
      <trkpt lat="47.3987" lon="0.92423">
        <ele>57.34</ele>
        <time>2021-07-29T12:25:32Z</time>
      </trkpt>
      <trkpt lat="47.39871" lon="0.92423">
        <ele>57.82</ele>
        <time>2021-07-29T12:26:13Z</time>
      </trkpt>
      <trkpt lat="47.3987" lon="0.92422">
        <ele>57.82</ele>
        <time>2021-07-29T12:26:53Z</time>
      </trkpt>
      <trkpt lat="47.39872" lon="0.92424">
        <ele>57.82</ele>
        <time>2021-07-29T12:27:28Z</time>
      </trkpt>
      <trkpt lat="47.39876" lon="0.92416">
        <ele>58.3</ele>
        <time>2021-07-29T12:27:53Z</time>
      </trkpt>
      <trkpt lat="47.39879" lon="0.92418">
        <ele>59.26</ele>
        <time>2021-07-29T12:28:23Z</time>
      </trkpt>
      <trkpt lat="47.39879" lon="0.92416">
        <ele>58.3</ele>
        <time>2021-07-29T12:28:47Z</time>
      </trkpt>
      <trkpt lat="47.39874" lon="0.92411">
        <ele>58.78</ele>
        <time>2021-07-29T12:29:23Z</time>
      </trkpt>
      <trkpt lat="47.39882" lon="0.92419">
        <ele>58.78</ele>
        <time>2021-07-29T12:29:57Z</time>
      </trkpt>
      <trkpt lat="47.39881" lon="0.92423">
        <ele>58.78</ele>
        <time>2021-07-29T12:30:33Z</time>
      </trkpt>
      <trkpt lat="47.39885" lon="0.92416">
        <ele>59.26</ele>
        <time>2021-07-29T12:31:03Z</time>
      </trkpt>
      <trkpt lat="47.39875" lon="0.92393">
        <ele>58.78</ele>
        <time>2021-07-29T12:31:20Z</time>
      </trkpt>
      <trkpt lat="47.39872" lon="0.92363">
        <ele>58.78</ele>
        <time>2021-07-29T12:31:38Z</time>
      </trkpt>
      <trkpt lat="47.3987" lon="0.92335">
        <ele>58.3</ele>
        <time>2021-07-29T12:31:55Z</time>
      </trkpt>
      <trkpt lat="47.39871" lon="0.92329">
        <ele>58.3</ele>
        <time>2021-07-29T12:31:59Z</time>
      </trkpt>
      <trkpt lat="47.39869" lon="0.92311">
        <ele>58.3</ele>
        <time>2021-07-29T12:32:13Z</time>
      </trkpt>
      <trkpt lat="47.39866" lon="0.92315">
        <ele>58.3</ele>
        <time>2021-07-29T12:32:16Z</time>
      </trkpt>
      <trkpt lat="47.39854" lon="0.92338">
        <ele>58.3</ele>
        <time>2021-07-29T12:32:33Z</time>
      </trkpt>
      <trkpt lat="47.39846" lon="0.92333">
        <ele>62.14</ele>
        <time>2021-07-29T12:32:48Z</time>
      </trkpt>
      <trkpt lat="47.39842" lon="0.92324">
        <ele>63.58</ele>
        <time>2021-07-29T12:33:01Z</time>
      </trkpt>
      <trkpt lat="47.39842" lon="0.92319">
        <ele>62.62</ele>
        <time>2021-07-29T12:33:04Z</time>
      </trkpt>
      <trkpt lat="47.39838" lon="0.92299">
        <ele>62.62</ele>
        <time>2021-07-29T12:33:16Z</time>
      </trkpt>
      <trkpt lat="47.3983" lon="0.92279">
        <ele>62.14</ele>
        <time>2021-07-29T12:33:34Z</time>
      </trkpt>
      <trkpt lat="47.39833" lon="0.92271">
        <ele>62.14</ele>
        <time>2021-07-29T12:33:42Z</time>
      </trkpt>
      <trkpt lat="47.39826" lon="0.92248">
        <ele>62.14</ele>
        <time>2021-07-29T12:33:57Z</time>
      </trkpt>
      <trkpt lat="47.39823" lon="0.92226">
        <ele>61.66</ele>
        <time>2021-07-29T12:34:12Z</time>
      </trkpt>
      <trkpt lat="47.39822" lon="0.92202">
        <ele>61.18</ele>
        <time>2021-07-29T12:34:30Z</time>
      </trkpt>
      <trkpt lat="47.39818" lon="0.92179">
        <ele>61.18</ele>
        <time>2021-07-29T12:34:50Z</time>
      </trkpt>
      <trkpt lat="47.39824" lon="0.92156">
        <ele>60.7</ele>
        <time>2021-07-29T12:35:05Z</time>
      </trkpt>
      <trkpt lat="47.39822" lon="0.92124">
        <ele>60.7</ele>
        <time>2021-07-29T12:35:21Z</time>
      </trkpt>
      <trkpt lat="47.39824" lon="0.92121">
        <ele>60.22</ele>
        <time>2021-07-29T12:35:37Z</time>
      </trkpt>
    </trkseg>
  </trk>
</gpx>